<?xml version="1.0" encoding="UTF-8" standalone="no" ?>
<gpx xmlns="http://www.topografix.com/GPX/1/1" xmlns:xsi="http://www.w3.org/2001/XMLSchema-instance" xsi:schemaLocation="http://www.topografix.com/GPX/1/1 http://www.topografix.com/GPX/1/1/gpx.xsd" version="1.1" creator="VisuGPX - https://www.visugpx.com">
  <metadata>
    <name>rando la vieille loye</name>
    <desc><![CDATA[Belle rando en forêt de chaux sous la conduite de l\'inépuisable Michel]]></desc>
  </metadata>
  <trk>
    <name><![CDATA[ACTIVE LOG 002]]></name>
    <trkseg>
      <trkpt lat="47.04236" lon="5.63229">
        <ele>233.737671</ele>
        <time>2011-04-07T12:01:56Z</time>
      </trkpt>
      <trkpt lat="47.04238" lon="5.63229">
        <ele>200.091675</ele>
        <time>2011-04-07T12:01:57Z</time>
      </trkpt>
      <trkpt lat="47.04227" lon="5.63239">
        <ele>202.975464</ele>
        <time>2011-04-07T12:02:22Z</time>
      </trkpt>
      <trkpt lat="47.04226" lon="5.6324">
        <ele>206.340088</ele>
        <time>2011-04-07T12:02:26Z</time>
      </trkpt>
      <trkpt lat="47.04226" lon="5.63241">
        <ele>210.185425</ele>
        <time>2011-04-07T12:02:31Z</time>
      </trkpt>
      <trkpt lat="47.04226" lon="5.63241">
        <ele>210.185425</ele>
        <time>2011-04-07T12:02:32Z</time>
      </trkpt>
      <trkpt lat="47.04226" lon="5.63241">
        <ele>211.627441</ele>
        <time>2011-04-07T12:02:36Z</time>
      </trkpt>
      <trkpt lat="47.04226" lon="5.63241">
        <ele>214.991943</ele>
        <time>2011-04-07T12:02:41Z</time>
      </trkpt>
      <trkpt lat="47.04226" lon="5.63241">
        <ele>214.991943</ele>
        <time>2011-04-07T12:02:42Z</time>
      </trkpt>
      <trkpt lat="47.04226" lon="5.6324">
        <ele>218.356567</ele>
        <time>2011-04-07T12:02:52Z</time>
      </trkpt>
      <trkpt lat="47.04225" lon="5.6324">
        <ele>221.240601</ele>
        <time>2011-04-07T12:03:04Z</time>
      </trkpt>
      <trkpt lat="47.04224" lon="5.63239">
        <ele>224.124512</ele>
        <time>2011-04-07T12:03:21Z</time>
      </trkpt>
      <trkpt lat="47.04226" lon="5.6324">
        <ele>227.489136</ele>
        <time>2011-04-07T12:03:42Z</time>
      </trkpt>
      <trkpt lat="47.04227" lon="5.63244">
        <ele>229.892334</ele>
        <time>2011-04-07T12:05:19Z</time>
      </trkpt>
      <trkpt lat="47.0423" lon="5.63255">
        <ele>229.892334</ele>
        <time>2011-04-07T12:05:26Z</time>
      </trkpt>
      <trkpt lat="47.04245" lon="5.63267">
        <ele>229.892334</ele>
        <time>2011-04-07T12:05:44Z</time>
      </trkpt>
      <trkpt lat="47.04247" lon="5.63272">
        <ele>229.892334</ele>
        <time>2011-04-07T12:05:57Z</time>
      </trkpt>
      <trkpt lat="47.04248" lon="5.63272">
        <ele>229.411743</ele>
        <time>2011-04-07T12:06:05Z</time>
      </trkpt>
      <trkpt lat="47.04251" lon="5.63273">
        <ele>229.892334</ele>
        <time>2011-04-07T12:06:10Z</time>
      </trkpt>
      <trkpt lat="47.04255" lon="5.6328">
        <ele>229.411743</ele>
        <time>2011-04-07T12:06:16Z</time>
      </trkpt>
      <trkpt lat="47.04263" lon="5.63294">
        <ele>229.892334</ele>
        <time>2011-04-07T12:06:31Z</time>
      </trkpt>
      <trkpt lat="47.04267" lon="5.63304">
        <ele>229.892334</ele>
        <time>2011-04-07T12:06:39Z</time>
      </trkpt>
      <trkpt lat="47.04273" lon="5.63307">
        <ele>229.892334</ele>
        <time>2011-04-07T12:06:44Z</time>
      </trkpt>
      <trkpt lat="47.04277" lon="5.63316">
        <ele>229.892334</ele>
        <time>2011-04-07T12:06:49Z</time>
      </trkpt>
      <trkpt lat="47.04289" lon="5.63341">
        <ele>230.373047</ele>
        <time>2011-04-07T12:07:06Z</time>
      </trkpt>
      <trkpt lat="47.04291" lon="5.63349">
        <ele>229.892334</ele>
        <time>2011-04-07T12:07:11Z</time>
      </trkpt>
      <trkpt lat="47.04297" lon="5.63362">
        <ele>229.892334</ele>
        <time>2011-04-07T12:07:19Z</time>
      </trkpt>
      <trkpt lat="47.04306" lon="5.63405">
        <ele>230.85376</ele>
        <time>2011-04-07T12:07:44Z</time>
      </trkpt>
      <trkpt lat="47.04307" lon="5.63408">
        <ele>230.373047</ele>
        <time>2011-04-07T12:07:46Z</time>
      </trkpt>
      <trkpt lat="47.04309" lon="5.63426">
        <ele>230.85376</ele>
        <time>2011-04-07T12:07:56Z</time>
      </trkpt>
      <trkpt lat="47.04312" lon="5.63452">
        <ele>230.85376</ele>
        <time>2011-04-07T12:08:10Z</time>
      </trkpt>
      <trkpt lat="47.04317" lon="5.63483">
        <ele>231.334351</ele>
        <time>2011-04-07T12:08:28Z</time>
      </trkpt>
      <trkpt lat="47.04319" lon="5.63493">
        <ele>231.334351</ele>
        <time>2011-04-07T12:08:34Z</time>
      </trkpt>
      <trkpt lat="47.04325" lon="5.63524">
        <ele>231.334351</ele>
        <time>2011-04-07T12:08:51Z</time>
      </trkpt>
      <trkpt lat="47.04329" lon="5.63557">
        <ele>231.334351</ele>
        <time>2011-04-07T12:09:09Z</time>
      </trkpt>
      <trkpt lat="47.04336" lon="5.63605">
        <ele>231.334351</ele>
        <time>2011-04-07T12:09:35Z</time>
      </trkpt>
      <trkpt lat="47.04337" lon="5.63611">
        <ele>231.814941</ele>
        <time>2011-04-07T12:09:38Z</time>
      </trkpt>
      <trkpt lat="47.04345" lon="5.63642">
        <ele>231.814941</ele>
        <time>2011-04-07T12:09:56Z</time>
      </trkpt>
      <trkpt lat="47.04352" lon="5.6368">
        <ele>232.295776</ele>
        <time>2011-04-07T12:10:17Z</time>
      </trkpt>
      <trkpt lat="47.04354" lon="5.63689">
        <ele>232.295776</ele>
        <time>2011-04-07T12:10:22Z</time>
      </trkpt>
      <trkpt lat="47.04357" lon="5.63705">
        <ele>232.776489</ele>
        <time>2011-04-07T12:10:29Z</time>
      </trkpt>
      <trkpt lat="47.04366" lon="5.63744">
        <ele>233.25708</ele>
        <time>2011-04-07T12:10:46Z</time>
      </trkpt>
      <trkpt lat="47.04376" lon="5.63783">
        <ele>233.25708</ele>
        <time>2011-04-07T12:11:04Z</time>
      </trkpt>
      <trkpt lat="47.04391" lon="5.63833">
        <ele>233.25708</ele>
        <time>2011-04-07T12:11:23Z</time>
      </trkpt>
      <trkpt lat="47.04392" lon="5.63839">
        <ele>233.25708</ele>
        <time>2011-04-07T12:11:26Z</time>
      </trkpt>
      <trkpt lat="47.04403" lon="5.63871">
        <ele>233.25708</ele>
        <time>2011-04-07T12:11:42Z</time>
      </trkpt>
      <trkpt lat="47.04421" lon="5.63915">
        <ele>233.25708</ele>
        <time>2011-04-07T12:12:02Z</time>
      </trkpt>
      <trkpt lat="47.04424" lon="5.63918">
        <ele>233.25708</ele>
        <time>2011-04-07T12:12:04Z</time>
      </trkpt>
      <trkpt lat="47.04437" lon="5.63941">
        <ele>233.25708</ele>
        <time>2011-04-07T12:12:21Z</time>
      </trkpt>
      <trkpt lat="47.04444" lon="5.63947">
        <ele>232.776489</ele>
        <time>2011-04-07T12:12:36Z</time>
      </trkpt>
      <trkpt lat="47.04453" lon="5.63963">
        <ele>233.25708</ele>
        <time>2011-04-07T12:12:48Z</time>
      </trkpt>
      <trkpt lat="47.04461" lon="5.6397">
        <ele>233.737671</ele>
        <time>2011-04-07T12:12:55Z</time>
      </trkpt>
      <trkpt lat="47.04475" lon="5.63999">
        <ele>234.218384</ele>
        <time>2011-04-07T12:13:15Z</time>
      </trkpt>
      <trkpt lat="47.04493" lon="5.64031">
        <ele>233.737671</ele>
        <time>2011-04-07T12:13:35Z</time>
      </trkpt>
      <trkpt lat="47.04502" lon="5.64051">
        <ele>233.737671</ele>
        <time>2011-04-07T12:13:47Z</time>
      </trkpt>
      <trkpt lat="47.04505" lon="5.64057">
        <ele>233.737671</ele>
        <time>2011-04-07T12:13:51Z</time>
      </trkpt>
      <trkpt lat="47.04526" lon="5.64091">
        <ele>234.218384</ele>
        <time>2011-04-07T12:14:15Z</time>
      </trkpt>
      <trkpt lat="47.04528" lon="5.64098">
        <ele>234.699097</ele>
        <time>2011-04-07T12:14:19Z</time>
      </trkpt>
      <trkpt lat="47.0454" lon="5.64116">
        <ele>234.218384</ele>
        <time>2011-04-07T12:14:31Z</time>
      </trkpt>
      <trkpt lat="47.04547" lon="5.64128">
        <ele>234.699097</ele>
        <time>2011-04-07T12:14:40Z</time>
      </trkpt>
      <trkpt lat="47.04553" lon="5.64138">
        <ele>234.699097</ele>
        <time>2011-04-07T12:14:47Z</time>
      </trkpt>
      <trkpt lat="47.0457" lon="5.64176">
        <ele>235.179688</ele>
        <time>2011-04-07T12:15:09Z</time>
      </trkpt>
      <trkpt lat="47.04572" lon="5.64194">
        <ele>235.179688</ele>
        <time>2011-04-07T12:15:18Z</time>
      </trkpt>
      <trkpt lat="47.04582" lon="5.64254">
        <ele>235.179688</ele>
        <time>2011-04-07T12:15:50Z</time>
      </trkpt>
      <trkpt lat="47.0459" lon="5.64279">
        <ele>235.660278</ele>
        <time>2011-04-07T12:16:05Z</time>
      </trkpt>
      <trkpt lat="47.04597" lon="5.64293">
        <ele>235.660278</ele>
        <time>2011-04-07T12:16:13Z</time>
      </trkpt>
      <trkpt lat="47.04607" lon="5.6432">
        <ele>235.660278</ele>
        <time>2011-04-07T12:16:28Z</time>
      </trkpt>
      <trkpt lat="47.04611" lon="5.64325">
        <ele>235.660278</ele>
        <time>2011-04-07T12:16:32Z</time>
      </trkpt>
      <trkpt lat="47.04613" lon="5.64328">
        <ele>235.660278</ele>
        <time>2011-04-07T12:16:34Z</time>
      </trkpt>
      <trkpt lat="47.04616" lon="5.64329">
        <ele>235.660278</ele>
        <time>2011-04-07T12:16:36Z</time>
      </trkpt>
      <trkpt lat="47.04629" lon="5.64337">
        <ele>235.660278</ele>
        <time>2011-04-07T12:16:47Z</time>
      </trkpt>
      <trkpt lat="47.04643" lon="5.64346">
        <ele>236.140991</ele>
        <time>2011-04-07T12:16:59Z</time>
      </trkpt>
      <trkpt lat="47.0466" lon="5.64362">
        <ele>236.621704</ele>
        <time>2011-04-07T12:17:16Z</time>
      </trkpt>
      <trkpt lat="47.04676" lon="5.64373">
        <ele>236.621704</ele>
        <time>2011-04-07T12:17:29Z</time>
      </trkpt>
      <trkpt lat="47.04702" lon="5.64389">
        <ele>237.102295</ele>
        <time>2011-04-07T12:17:49Z</time>
      </trkpt>
      <trkpt lat="47.04721" lon="5.64401">
        <ele>237.582886</ele>
        <time>2011-04-07T12:18:05Z</time>
      </trkpt>
      <trkpt lat="47.04746" lon="5.64428">
        <ele>237.582886</ele>
        <time>2011-04-07T12:18:29Z</time>
      </trkpt>
      <trkpt lat="47.04752" lon="5.64436">
        <ele>237.582886</ele>
        <time>2011-04-07T12:18:36Z</time>
      </trkpt>
      <trkpt lat="47.0477" lon="5.64467">
        <ele>237.582886</ele>
        <time>2011-04-07T12:18:56Z</time>
      </trkpt>
      <trkpt lat="47.04774" lon="5.64494">
        <ele>238.063599</ele>
        <time>2011-04-07T12:19:09Z</time>
      </trkpt>
      <trkpt lat="47.04778" lon="5.645">
        <ele>237.582886</ele>
        <time>2011-04-07T12:19:13Z</time>
      </trkpt>
      <trkpt lat="47.04781" lon="5.64515">
        <ele>238.063599</ele>
        <time>2011-04-07T12:19:21Z</time>
      </trkpt>
      <trkpt lat="47.04771" lon="5.64531">
        <ele>238.063599</ele>
        <time>2011-04-07T12:19:36Z</time>
      </trkpt>
      <trkpt lat="47.04767" lon="5.64534">
        <ele>238.063599</ele>
        <time>2011-04-07T12:19:39Z</time>
      </trkpt>
      <trkpt lat="47.04751" lon="5.6454">
        <ele>238.063599</ele>
        <time>2011-04-07T12:19:56Z</time>
      </trkpt>
      <trkpt lat="47.04736" lon="5.64547">
        <ele>238.063599</ele>
        <time>2011-04-07T12:20:08Z</time>
      </trkpt>
      <trkpt lat="47.04722" lon="5.64546">
        <ele>238.063599</ele>
        <time>2011-04-07T12:20:22Z</time>
      </trkpt>
      <trkpt lat="47.04704" lon="5.64556">
        <ele>237.582886</ele>
        <time>2011-04-07T12:20:39Z</time>
      </trkpt>
      <trkpt lat="47.04692" lon="5.64561">
        <ele>237.582886</ele>
        <time>2011-04-07T12:20:49Z</time>
      </trkpt>
      <trkpt lat="47.04682" lon="5.64565">
        <ele>237.582886</ele>
        <time>2011-04-07T12:20:56Z</time>
      </trkpt>
      <trkpt lat="47.04665" lon="5.64572">
        <ele>237.582886</ele>
        <time>2011-04-07T12:21:10Z</time>
      </trkpt>
      <trkpt lat="47.0466" lon="5.64573">
        <ele>237.582886</ele>
        <time>2011-04-07T12:21:14Z</time>
      </trkpt>
      <trkpt lat="47.0464" lon="5.6458">
        <ele>237.102295</ele>
        <time>2011-04-07T12:21:30Z</time>
      </trkpt>
      <trkpt lat="47.04625" lon="5.64581">
        <ele>237.102295</ele>
        <time>2011-04-07T12:21:43Z</time>
      </trkpt>
      <trkpt lat="47.04609" lon="5.64585">
        <ele>237.102295</ele>
        <time>2011-04-07T12:21:59Z</time>
      </trkpt>
      <trkpt lat="47.04602" lon="5.64588">
        <ele>236.621704</ele>
        <time>2011-04-07T12:22:09Z</time>
      </trkpt>
      <trkpt lat="47.04589" lon="5.64598">
        <ele>237.102295</ele>
        <time>2011-04-07T12:22:20Z</time>
      </trkpt>
      <trkpt lat="47.0457" lon="5.64608">
        <ele>237.102295</ele>
        <time>2011-04-07T12:22:33Z</time>
      </trkpt>
      <trkpt lat="47.04553" lon="5.64617">
        <ele>236.621704</ele>
        <time>2011-04-07T12:22:51Z</time>
      </trkpt>
      <trkpt lat="47.04542" lon="5.64621">
        <ele>236.621704</ele>
        <time>2011-04-07T12:23:00Z</time>
      </trkpt>
      <trkpt lat="47.04538" lon="5.64624">
        <ele>236.140991</ele>
        <time>2011-04-07T12:23:02Z</time>
      </trkpt>
      <trkpt lat="47.04529" lon="5.64639">
        <ele>235.660278</ele>
        <time>2011-04-07T12:23:11Z</time>
      </trkpt>
      <trkpt lat="47.04513" lon="5.64649">
        <ele>235.179688</ele>
        <time>2011-04-07T12:23:24Z</time>
      </trkpt>
      <trkpt lat="47.04496" lon="5.64657">
        <ele>234.218384</ele>
        <time>2011-04-07T12:23:35Z</time>
      </trkpt>
      <trkpt lat="47.04491" lon="5.64662">
        <ele>234.218384</ele>
        <time>2011-04-07T12:23:41Z</time>
      </trkpt>
      <trkpt lat="47.04472" lon="5.64674">
        <ele>232.776489</ele>
        <time>2011-04-07T12:23:57Z</time>
      </trkpt>
      <trkpt lat="47.0446" lon="5.6468">
        <ele>232.295776</ele>
        <time>2011-04-07T12:24:12Z</time>
      </trkpt>
      <trkpt lat="47.04449" lon="5.64672">
        <ele>232.295776</ele>
        <time>2011-04-07T12:24:29Z</time>
      </trkpt>
      <trkpt lat="47.04441" lon="5.64673">
        <ele>231.334351</ele>
        <time>2011-04-07T12:24:51Z</time>
      </trkpt>
      <trkpt lat="47.0443" lon="5.6468">
        <ele>231.814941</ele>
        <time>2011-04-07T12:25:21Z</time>
      </trkpt>
      <trkpt lat="47.04427" lon="5.64683">
        <ele>231.814941</ele>
        <time>2011-04-07T12:25:24Z</time>
      </trkpt>
      <trkpt lat="47.0441" lon="5.6468">
        <ele>233.25708</ele>
        <time>2011-04-07T12:25:41Z</time>
      </trkpt>
      <trkpt lat="47.04394" lon="5.64685">
        <ele>235.179688</ele>
        <time>2011-04-07T12:25:54Z</time>
      </trkpt>
      <trkpt lat="47.04393" lon="5.64685">
        <ele>235.179688</ele>
        <time>2011-04-07T12:25:56Z</time>
      </trkpt>
      <trkpt lat="47.04386" lon="5.64686">
        <ele>235.660278</ele>
        <time>2011-04-07T12:26:02Z</time>
      </trkpt>
      <trkpt lat="47.04381" lon="5.64685">
        <ele>235.660278</ele>
        <time>2011-04-07T12:26:07Z</time>
      </trkpt>
      <trkpt lat="47.04359" lon="5.64683">
        <ele>236.621704</ele>
        <time>2011-04-07T12:26:23Z</time>
      </trkpt>
      <trkpt lat="47.04359" lon="5.64684">
        <ele>237.102295</ele>
        <time>2011-04-07T12:26:24Z</time>
      </trkpt>
      <trkpt lat="47.04339" lon="5.64685">
        <ele>237.102295</ele>
        <time>2011-04-07T12:26:37Z</time>
      </trkpt>
      <trkpt lat="47.0432" lon="5.64694">
        <ele>238.063599</ele>
        <time>2011-04-07T12:26:53Z</time>
      </trkpt>
      <trkpt lat="47.04315" lon="5.64696">
        <ele>238.063599</ele>
        <time>2011-04-07T12:26:55Z</time>
      </trkpt>
      <trkpt lat="47.04302" lon="5.64695">
        <ele>238.063599</ele>
        <time>2011-04-07T12:27:07Z</time>
      </trkpt>
      <trkpt lat="47.04294" lon="5.64687">
        <ele>238.063599</ele>
        <time>2011-04-07T12:27:15Z</time>
      </trkpt>
      <trkpt lat="47.04289" lon="5.64683">
        <ele>238.063599</ele>
        <time>2011-04-07T12:27:18Z</time>
      </trkpt>
      <trkpt lat="47.04272" lon="5.64675">
        <ele>238.063599</ele>
        <time>2011-04-07T12:27:32Z</time>
      </trkpt>
      <trkpt lat="47.04257" lon="5.64657">
        <ele>238.063599</ele>
        <time>2011-04-07T12:27:47Z</time>
      </trkpt>
      <trkpt lat="47.04245" lon="5.64643">
        <ele>238.063599</ele>
        <time>2011-04-07T12:28:02Z</time>
      </trkpt>
      <trkpt lat="47.04237" lon="5.64634">
        <ele>237.582886</ele>
        <time>2011-04-07T12:28:12Z</time>
      </trkpt>
      <trkpt lat="47.04218" lon="5.64621">
        <ele>237.102295</ele>
        <time>2011-04-07T12:28:29Z</time>
      </trkpt>
      <trkpt lat="47.04215" lon="5.64622">
        <ele>237.582886</ele>
        <time>2011-04-07T12:28:32Z</time>
      </trkpt>
      <trkpt lat="47.04206" lon="5.64633">
        <ele>237.102295</ele>
        <time>2011-04-07T12:28:42Z</time>
      </trkpt>
      <trkpt lat="47.042" lon="5.64634">
        <ele>237.582886</ele>
        <time>2011-04-07T12:28:46Z</time>
      </trkpt>
      <trkpt lat="47.04194" lon="5.64632">
        <ele>237.102295</ele>
        <time>2011-04-07T12:28:51Z</time>
      </trkpt>
      <trkpt lat="47.0418" lon="5.64638">
        <ele>236.140991</ele>
        <time>2011-04-07T12:29:04Z</time>
      </trkpt>
      <trkpt lat="47.04176" lon="5.64647">
        <ele>235.660278</ele>
        <time>2011-04-07T12:29:13Z</time>
      </trkpt>
      <trkpt lat="47.04163" lon="5.64658">
        <ele>233.737671</ele>
        <time>2011-04-07T12:29:25Z</time>
      </trkpt>
      <trkpt lat="47.0415" lon="5.64685">
        <ele>232.295776</ele>
        <time>2011-04-07T12:29:42Z</time>
      </trkpt>
      <trkpt lat="47.04143" lon="5.64707">
        <ele>231.334351</ele>
        <time>2011-04-07T12:29:56Z</time>
      </trkpt>
      <trkpt lat="47.04137" lon="5.64738">
        <ele>230.373047</ele>
        <time>2011-04-07T12:30:15Z</time>
      </trkpt>
      <trkpt lat="47.04132" lon="5.64766">
        <ele>227.969727</ele>
        <time>2011-04-07T12:30:33Z</time>
      </trkpt>
      <trkpt lat="47.04126" lon="5.64774">
        <ele>227.489136</ele>
        <time>2011-04-07T12:30:49Z</time>
      </trkpt>
      <trkpt lat="47.04127" lon="5.64795">
        <ele>228.450439</ele>
        <time>2011-04-07T12:31:03Z</time>
      </trkpt>
      <trkpt lat="47.04131" lon="5.6481">
        <ele>228.450439</ele>
        <time>2011-04-07T12:31:13Z</time>
      </trkpt>
      <trkpt lat="47.04131" lon="5.64821">
        <ele>228.931152</ele>
        <time>2011-04-07T12:31:18Z</time>
      </trkpt>
      <trkpt lat="47.04129" lon="5.64831">
        <ele>228.931152</ele>
        <time>2011-04-07T12:31:23Z</time>
      </trkpt>
      <trkpt lat="47.04131" lon="5.64841">
        <ele>227.969727</ele>
        <time>2011-04-07T12:31:29Z</time>
      </trkpt>
      <trkpt lat="47.04127" lon="5.6486">
        <ele>227.489136</ele>
        <time>2011-04-07T12:31:39Z</time>
      </trkpt>
      <trkpt lat="47.04129" lon="5.64866">
        <ele>227.489136</ele>
        <time>2011-04-07T12:31:44Z</time>
      </trkpt>
      <trkpt lat="47.0413" lon="5.64868">
        <ele>227.489136</ele>
        <time>2011-04-07T12:31:46Z</time>
      </trkpt>
      <trkpt lat="47.04131" lon="5.64877">
        <ele>227.489136</ele>
        <time>2011-04-07T12:31:50Z</time>
      </trkpt>
      <trkpt lat="47.04127" lon="5.64906">
        <ele>229.411743</ele>
        <time>2011-04-07T12:32:07Z</time>
      </trkpt>
      <trkpt lat="47.04124" lon="5.64946">
        <ele>231.334351</ele>
        <time>2011-04-07T12:32:28Z</time>
      </trkpt>
      <trkpt lat="47.0412" lon="5.64961">
        <ele>230.85376</ele>
        <time>2011-04-07T12:32:36Z</time>
      </trkpt>
      <trkpt lat="47.0412" lon="5.64965">
        <ele>230.85376</ele>
        <time>2011-04-07T12:32:38Z</time>
      </trkpt>
      <trkpt lat="47.04121" lon="5.64971">
        <ele>230.85376</ele>
        <time>2011-04-07T12:32:42Z</time>
      </trkpt>
      <trkpt lat="47.04116" lon="5.64995">
        <ele>229.892334</ele>
        <time>2011-04-07T12:32:57Z</time>
      </trkpt>
      <trkpt lat="47.04114" lon="5.65003">
        <ele>229.892334</ele>
        <time>2011-04-07T12:33:01Z</time>
      </trkpt>
      <trkpt lat="47.04107" lon="5.65026">
        <ele>228.450439</ele>
        <time>2011-04-07T12:33:16Z</time>
      </trkpt>
      <trkpt lat="47.04098" lon="5.6505">
        <ele>228.450439</ele>
        <time>2011-04-07T12:33:27Z</time>
      </trkpt>
      <trkpt lat="47.04089" lon="5.65071">
        <ele>227.008545</ele>
        <time>2011-04-07T12:33:39Z</time>
      </trkpt>
      <trkpt lat="47.04078" lon="5.65092">
        <ele>225.566528</ele>
        <time>2011-04-07T12:33:52Z</time>
      </trkpt>
      <trkpt lat="47.04074" lon="5.65111">
        <ele>224.605225</ele>
        <time>2011-04-07T12:34:01Z</time>
      </trkpt>
      <trkpt lat="47.04068" lon="5.65129">
        <ele>223.643799</ele>
        <time>2011-04-07T12:34:17Z</time>
      </trkpt>
      <trkpt lat="47.04053" lon="5.65143">
        <ele>223.163208</ele>
        <time>2011-04-07T12:34:56Z</time>
      </trkpt>
      <trkpt lat="47.04045" lon="5.65149">
        <ele>223.643799</ele>
        <time>2011-04-07T12:35:11Z</time>
      </trkpt>
      <trkpt lat="47.04021" lon="5.65167">
        <ele>223.643799</ele>
        <time>2011-04-07T12:35:30Z</time>
      </trkpt>
      <trkpt lat="47.04003" lon="5.65186">
        <ele>223.163208</ele>
        <time>2011-04-07T12:35:49Z</time>
      </trkpt>
      <trkpt lat="47.03988" lon="5.65205">
        <ele>223.643799</ele>
        <time>2011-04-07T12:36:02Z</time>
      </trkpt>
      <trkpt lat="47.03977" lon="5.65214">
        <ele>223.163208</ele>
        <time>2011-04-07T12:36:13Z</time>
      </trkpt>
      <trkpt lat="47.03963" lon="5.65246">
        <ele>224.605225</ele>
        <time>2011-04-07T12:36:29Z</time>
      </trkpt>
      <trkpt lat="47.03963" lon="5.65249">
        <ele>224.605225</ele>
        <time>2011-04-07T12:36:31Z</time>
      </trkpt>
      <trkpt lat="47.03961" lon="5.65258">
        <ele>224.605225</ele>
        <time>2011-04-07T12:36:34Z</time>
      </trkpt>
      <trkpt lat="47.03959" lon="5.65262">
        <ele>224.605225</ele>
        <time>2011-04-07T12:36:36Z</time>
      </trkpt>
      <trkpt lat="47.03957" lon="5.65271">
        <ele>224.605225</ele>
        <time>2011-04-07T12:36:40Z</time>
      </trkpt>
      <trkpt lat="47.03957" lon="5.65276">
        <ele>224.605225</ele>
        <time>2011-04-07T12:36:42Z</time>
      </trkpt>
      <trkpt lat="47.03961" lon="5.65284">
        <ele>224.124512</ele>
        <time>2011-04-07T12:36:48Z</time>
      </trkpt>
      <trkpt lat="47.03963" lon="5.65291">
        <ele>224.605225</ele>
        <time>2011-04-07T12:36:53Z</time>
      </trkpt>
      <trkpt lat="47.03963" lon="5.65298">
        <ele>224.605225</ele>
        <time>2011-04-07T12:36:57Z</time>
      </trkpt>
      <trkpt lat="47.03962" lon="5.65325">
        <ele>227.008545</ele>
        <time>2011-04-07T12:37:12Z</time>
      </trkpt>
      <trkpt lat="47.03958" lon="5.65351">
        <ele>228.450439</ele>
        <time>2011-04-07T12:37:26Z</time>
      </trkpt>
      <trkpt lat="47.03958" lon="5.65353">
        <ele>228.450439</ele>
        <time>2011-04-07T12:37:27Z</time>
      </trkpt>
      <trkpt lat="47.03959" lon="5.65374">
        <ele>229.411743</ele>
        <time>2011-04-07T12:37:39Z</time>
      </trkpt>
      <trkpt lat="47.0396" lon="5.65381">
        <ele>229.411743</ele>
        <time>2011-04-07T12:37:43Z</time>
      </trkpt>
      <trkpt lat="47.03958" lon="5.65397">
        <ele>228.931152</ele>
        <time>2011-04-07T12:37:51Z</time>
      </trkpt>
      <trkpt lat="47.03958" lon="5.65401">
        <ele>229.411743</ele>
        <time>2011-04-07T12:37:53Z</time>
      </trkpt>
      <trkpt lat="47.03958" lon="5.65408">
        <ele>229.411743</ele>
        <time>2011-04-07T12:37:57Z</time>
      </trkpt>
      <trkpt lat="47.03959" lon="5.65428">
        <ele>228.931152</ele>
        <time>2011-04-07T12:38:08Z</time>
      </trkpt>
      <trkpt lat="47.03968" lon="5.65454">
        <ele>228.931152</ele>
        <time>2011-04-07T12:38:23Z</time>
      </trkpt>
      <trkpt lat="47.0397" lon="5.6546">
        <ele>228.931152</ele>
        <time>2011-04-07T12:38:27Z</time>
      </trkpt>
      <trkpt lat="47.0397" lon="5.6547">
        <ele>228.931152</ele>
        <time>2011-04-07T12:38:33Z</time>
      </trkpt>
      <trkpt lat="47.03974" lon="5.65479">
        <ele>228.931152</ele>
        <time>2011-04-07T12:38:39Z</time>
      </trkpt>
      <trkpt lat="47.03977" lon="5.65486">
        <ele>228.931152</ele>
        <time>2011-04-07T12:38:44Z</time>
      </trkpt>
      <trkpt lat="47.03973" lon="5.6551">
        <ele>229.892334</ele>
        <time>2011-04-07T12:38:53Z</time>
      </trkpt>
      <trkpt lat="47.03974" lon="5.65525">
        <ele>229.411743</ele>
        <time>2011-04-07T12:39:10Z</time>
      </trkpt>
      <trkpt lat="47.03965" lon="5.65524">
        <ele>229.411743</ele>
        <time>2011-04-07T12:43:35Z</time>
      </trkpt>
      <trkpt lat="47.03958" lon="5.65523">
        <ele>229.411743</ele>
        <time>2011-04-07T12:43:56Z</time>
      </trkpt>
      <trkpt lat="47.03957" lon="5.65521">
        <ele>229.411743</ele>
        <time>2011-04-07T12:43:58Z</time>
      </trkpt>
      <trkpt lat="47.0395" lon="5.65527">
        <ele>228.931152</ele>
        <time>2011-04-07T12:44:13Z</time>
      </trkpt>
      <trkpt lat="47.03952" lon="5.65531">
        <ele>231.334351</ele>
        <time>2011-04-07T12:48:22Z</time>
      </trkpt>
      <trkpt lat="47.03954" lon="5.65539">
        <ele>231.334351</ele>
        <time>2011-04-07T12:49:02Z</time>
      </trkpt>
      <trkpt lat="47.03956" lon="5.65553">
        <ele>230.373047</ele>
        <time>2011-04-07T12:49:16Z</time>
      </trkpt>
      <trkpt lat="47.03956" lon="5.65558">
        <ele>230.373047</ele>
        <time>2011-04-07T12:49:20Z</time>
      </trkpt>
      <trkpt lat="47.03958" lon="5.65562">
        <ele>230.373047</ele>
        <time>2011-04-07T12:49:23Z</time>
      </trkpt>
      <trkpt lat="47.0396" lon="5.6558">
        <ele>231.334351</ele>
        <time>2011-04-07T12:49:39Z</time>
      </trkpt>
      <trkpt lat="47.03972" lon="5.65606">
        <ele>233.737671</ele>
        <time>2011-04-07T12:49:57Z</time>
      </trkpt>
      <trkpt lat="47.0398" lon="5.65625">
        <ele>234.218384</ele>
        <time>2011-04-07T12:50:11Z</time>
      </trkpt>
      <trkpt lat="47.0399" lon="5.65652">
        <ele>234.699097</ele>
        <time>2011-04-07T12:50:31Z</time>
      </trkpt>
      <trkpt lat="47.03998" lon="5.65662">
        <ele>235.179688</ele>
        <time>2011-04-07T12:50:40Z</time>
      </trkpt>
      <trkpt lat="47.04" lon="5.65682">
        <ele>235.660278</ele>
        <time>2011-04-07T12:50:52Z</time>
      </trkpt>
      <trkpt lat="47.04002" lon="5.65687">
        <ele>235.660278</ele>
        <time>2011-04-07T12:50:55Z</time>
      </trkpt>
      <trkpt lat="47.03999" lon="5.65724">
        <ele>235.660278</ele>
        <time>2011-04-07T12:51:12Z</time>
      </trkpt>
      <trkpt lat="47.03998" lon="5.65729">
        <ele>235.179688</ele>
        <time>2011-04-07T12:51:14Z</time>
      </trkpt>
      <trkpt lat="47.04001" lon="5.65745">
        <ele>234.699097</ele>
        <time>2011-04-07T12:51:26Z</time>
      </trkpt>
      <trkpt lat="47.04007" lon="5.65762">
        <ele>234.699097</ele>
        <time>2011-04-07T12:51:36Z</time>
      </trkpt>
      <trkpt lat="47.04013" lon="5.65768">
        <ele>234.699097</ele>
        <time>2011-04-07T12:51:41Z</time>
      </trkpt>
      <trkpt lat="47.04016" lon="5.65776">
        <ele>234.699097</ele>
        <time>2011-04-07T12:51:46Z</time>
      </trkpt>
      <trkpt lat="47.04018" lon="5.65805">
        <ele>235.660278</ele>
        <time>2011-04-07T12:52:03Z</time>
      </trkpt>
      <trkpt lat="47.0402" lon="5.65814">
        <ele>235.660278</ele>
        <time>2011-04-07T12:52:08Z</time>
      </trkpt>
      <trkpt lat="47.04022" lon="5.65844">
        <ele>235.179688</ele>
        <time>2011-04-07T12:52:25Z</time>
      </trkpt>
      <trkpt lat="47.04021" lon="5.65852">
        <ele>235.660278</ele>
        <time>2011-04-07T12:52:29Z</time>
      </trkpt>
      <trkpt lat="47.04028" lon="5.65882">
        <ele>236.140991</ele>
        <time>2011-04-07T12:52:46Z</time>
      </trkpt>
      <trkpt lat="47.04031" lon="5.65904">
        <ele>236.140991</ele>
        <time>2011-04-07T12:53:00Z</time>
      </trkpt>
      <trkpt lat="47.04035" lon="5.65928">
        <ele>235.660278</ele>
        <time>2011-04-07T12:53:15Z</time>
      </trkpt>
      <trkpt lat="47.0404" lon="5.65942">
        <ele>236.140991</ele>
        <time>2011-04-07T12:53:25Z</time>
      </trkpt>
      <trkpt lat="47.04043" lon="5.65969">
        <ele>236.140991</ele>
        <time>2011-04-07T12:53:40Z</time>
      </trkpt>
      <trkpt lat="47.04048" lon="5.65991">
        <ele>236.140991</ele>
        <time>2011-04-07T12:53:53Z</time>
      </trkpt>
      <trkpt lat="47.04044" lon="5.66027">
        <ele>237.102295</ele>
        <time>2011-04-07T12:54:08Z</time>
      </trkpt>
      <trkpt lat="47.0405" lon="5.66046">
        <ele>237.582886</ele>
        <time>2011-04-07T12:54:20Z</time>
      </trkpt>
      <trkpt lat="47.04053" lon="5.66048">
        <ele>238.063599</ele>
        <time>2011-04-07T12:54:22Z</time>
      </trkpt>
      <trkpt lat="47.04054" lon="5.66066">
        <ele>237.582886</ele>
        <time>2011-04-07T12:54:30Z</time>
      </trkpt>
      <trkpt lat="47.04051" lon="5.66089">
        <ele>236.621704</ele>
        <time>2011-04-07T12:54:44Z</time>
      </trkpt>
      <trkpt lat="47.04053" lon="5.66113">
        <ele>237.582886</ele>
        <time>2011-04-07T12:54:59Z</time>
      </trkpt>
      <trkpt lat="47.04046" lon="5.66128">
        <ele>238.544312</ele>
        <time>2011-04-07T12:55:10Z</time>
      </trkpt>
      <trkpt lat="47.04038" lon="5.66145">
        <ele>239.024902</ele>
        <time>2011-04-07T12:55:23Z</time>
      </trkpt>
      <trkpt lat="47.04036" lon="5.6616">
        <ele>239.024902</ele>
        <time>2011-04-07T12:55:32Z</time>
      </trkpt>
      <trkpt lat="47.04038" lon="5.66167">
        <ele>239.505493</ele>
        <time>2011-04-07T12:55:37Z</time>
      </trkpt>
      <trkpt lat="47.04037" lon="5.66182">
        <ele>239.505493</ele>
        <time>2011-04-07T12:55:47Z</time>
      </trkpt>
      <trkpt lat="47.04043" lon="5.66209">
        <ele>240.467041</ele>
        <time>2011-04-07T12:56:05Z</time>
      </trkpt>
      <trkpt lat="47.04053" lon="5.66238">
        <ele>240.947632</ele>
        <time>2011-04-07T12:56:22Z</time>
      </trkpt>
      <trkpt lat="47.04053" lon="5.66243">
        <ele>240.947632</ele>
        <time>2011-04-07T12:56:25Z</time>
      </trkpt>
      <trkpt lat="47.04057" lon="5.66264">
        <ele>241.428223</ele>
        <time>2011-04-07T12:56:37Z</time>
      </trkpt>
      <trkpt lat="47.04059" lon="5.66294">
        <ele>241.428223</ele>
        <time>2011-04-07T12:56:53Z</time>
      </trkpt>
      <trkpt lat="47.0406" lon="5.66318">
        <ele>241.908936</ele>
        <time>2011-04-07T12:57:03Z</time>
      </trkpt>
      <trkpt lat="47.04056" lon="5.66338">
        <ele>241.428223</ele>
        <time>2011-04-07T12:57:13Z</time>
      </trkpt>
      <trkpt lat="47.04055" lon="5.66363">
        <ele>239.986206</ele>
        <time>2011-04-07T12:57:29Z</time>
      </trkpt>
      <trkpt lat="47.04054" lon="5.66392">
        <ele>239.024902</ele>
        <time>2011-04-07T12:57:46Z</time>
      </trkpt>
      <trkpt lat="47.04054" lon="5.66423">
        <ele>238.063599</ele>
        <time>2011-04-07T12:58:02Z</time>
      </trkpt>
      <trkpt lat="47.04051" lon="5.66456">
        <ele>238.544312</ele>
        <time>2011-04-07T12:58:17Z</time>
      </trkpt>
      <trkpt lat="47.04052" lon="5.66457">
        <ele>238.544312</ele>
        <time>2011-04-07T12:58:18Z</time>
      </trkpt>
      <trkpt lat="47.04053" lon="5.66471">
        <ele>238.063599</ele>
        <time>2011-04-07T12:58:25Z</time>
      </trkpt>
      <trkpt lat="47.04053" lon="5.66492">
        <ele>238.063599</ele>
        <time>2011-04-07T12:58:37Z</time>
      </trkpt>
      <trkpt lat="47.04054" lon="5.66508">
        <ele>237.582886</ele>
        <time>2011-04-07T12:58:48Z</time>
      </trkpt>
      <trkpt lat="47.04057" lon="5.66522">
        <ele>234.699097</ele>
        <time>2011-04-07T12:59:05Z</time>
      </trkpt>
      <trkpt lat="47.04055" lon="5.6655">
        <ele>237.102295</ele>
        <time>2011-04-07T12:59:24Z</time>
      </trkpt>
      <trkpt lat="47.04051" lon="5.66571">
        <ele>237.102295</ele>
        <time>2011-04-07T12:59:39Z</time>
      </trkpt>
      <trkpt lat="47.04042" lon="5.66605">
        <ele>237.102295</ele>
        <time>2011-04-07T13:00:00Z</time>
      </trkpt>
      <trkpt lat="47.04036" lon="5.66633">
        <ele>237.102295</ele>
        <time>2011-04-07T13:00:14Z</time>
      </trkpt>
      <trkpt lat="47.04026" lon="5.66676">
        <ele>236.621704</ele>
        <time>2011-04-07T13:00:35Z</time>
      </trkpt>
      <trkpt lat="47.04023" lon="5.66718">
        <ele>236.621704</ele>
        <time>2011-04-07T13:00:59Z</time>
      </trkpt>
      <trkpt lat="47.04026" lon="5.66767">
        <ele>238.063599</ele>
        <time>2011-04-07T13:01:24Z</time>
      </trkpt>
      <trkpt lat="47.04036" lon="5.6679">
        <ele>239.024902</ele>
        <time>2011-04-07T13:01:42Z</time>
      </trkpt>
      <trkpt lat="47.04052" lon="5.66803">
        <ele>239.505493</ele>
        <time>2011-04-07T13:02:00Z</time>
      </trkpt>
      <trkpt lat="47.04077" lon="5.6682">
        <ele>239.986206</ele>
        <time>2011-04-07T13:02:19Z</time>
      </trkpt>
      <trkpt lat="47.04104" lon="5.66834">
        <ele>240.467041</ele>
        <time>2011-04-07T13:02:41Z</time>
      </trkpt>
      <trkpt lat="47.04124" lon="5.66845">
        <ele>240.947632</ele>
        <time>2011-04-07T13:03:01Z</time>
      </trkpt>
      <trkpt lat="47.04153" lon="5.66866">
        <ele>241.428223</ele>
        <time>2011-04-07T13:03:19Z</time>
      </trkpt>
      <trkpt lat="47.04157" lon="5.66882">
        <ele>241.428223</ele>
        <time>2011-04-07T13:03:31Z</time>
      </trkpt>
      <trkpt lat="47.04169" lon="5.66888">
        <ele>241.908936</ele>
        <time>2011-04-07T13:03:45Z</time>
      </trkpt>
      <trkpt lat="47.04179" lon="5.66905">
        <ele>241.428223</ele>
        <time>2011-04-07T13:04:06Z</time>
      </trkpt>
      <trkpt lat="47.04189" lon="5.66891">
        <ele>240.947632</ele>
        <time>2011-04-07T13:04:32Z</time>
      </trkpt>
      <trkpt lat="47.04179" lon="5.66893">
        <ele>239.986206</ele>
        <time>2011-04-07T13:10:21Z</time>
      </trkpt>
      <trkpt lat="47.04192" lon="5.66897">
        <ele>240.947632</ele>
        <time>2011-04-07T13:10:40Z</time>
      </trkpt>
      <trkpt lat="47.04198" lon="5.66894">
        <ele>241.428223</ele>
        <time>2011-04-07T13:10:50Z</time>
      </trkpt>
      <trkpt lat="47.04214" lon="5.66894">
        <ele>242.870239</ele>
        <time>2011-04-07T13:11:05Z</time>
      </trkpt>
      <trkpt lat="47.04219" lon="5.66895">
        <ele>242.389648</ele>
        <time>2011-04-07T13:11:18Z</time>
      </trkpt>
      <trkpt lat="47.0425" lon="5.66883">
        <ele>244.312256</ele>
        <time>2011-04-07T13:11:37Z</time>
      </trkpt>
      <trkpt lat="47.04276" lon="5.66875">
        <ele>244.792847</ele>
        <time>2011-04-07T13:11:53Z</time>
      </trkpt>
      <trkpt lat="47.04305" lon="5.66865">
        <ele>245.75415</ele>
        <time>2011-04-07T13:12:16Z</time>
      </trkpt>
      <trkpt lat="47.04327" lon="5.66864">
        <ele>245.273438</ele>
        <time>2011-04-07T13:12:35Z</time>
      </trkpt>
      <trkpt lat="47.04339" lon="5.66855">
        <ele>244.792847</ele>
        <time>2011-04-07T13:12:49Z</time>
      </trkpt>
      <trkpt lat="47.04353" lon="5.66849">
        <ele>243.831543</ele>
        <time>2011-04-07T13:13:04Z</time>
      </trkpt>
      <trkpt lat="47.04391" lon="5.66841">
        <ele>243.35083</ele>
        <time>2011-04-07T13:13:27Z</time>
      </trkpt>
      <trkpt lat="47.04416" lon="5.66838">
        <ele>243.35083</ele>
        <time>2011-04-07T13:13:44Z</time>
      </trkpt>
      <trkpt lat="47.04449" lon="5.66826">
        <ele>241.908936</ele>
        <time>2011-04-07T13:14:07Z</time>
      </trkpt>
      <trkpt lat="47.04474" lon="5.66823">
        <ele>240.947632</ele>
        <time>2011-04-07T13:14:25Z</time>
      </trkpt>
      <trkpt lat="47.04504" lon="5.66814">
        <ele>239.986206</ele>
        <time>2011-04-07T13:14:43Z</time>
      </trkpt>
      <trkpt lat="47.0452" lon="5.66808">
        <ele>238.063599</ele>
        <time>2011-04-07T13:15:00Z</time>
      </trkpt>
      <trkpt lat="47.04543" lon="5.66804">
        <ele>237.582886</ele>
        <time>2011-04-07T13:15:21Z</time>
      </trkpt>
      <trkpt lat="47.04563" lon="5.66796">
        <ele>238.544312</ele>
        <time>2011-04-07T13:15:38Z</time>
      </trkpt>
      <trkpt lat="47.04586" lon="5.66785">
        <ele>241.428223</ele>
        <time>2011-04-07T13:16:01Z</time>
      </trkpt>
      <trkpt lat="47.04617" lon="5.66778">
        <ele>242.389648</ele>
        <time>2011-04-07T13:16:20Z</time>
      </trkpt>
      <trkpt lat="47.04649" lon="5.66772">
        <ele>243.35083</ele>
        <time>2011-04-07T13:16:38Z</time>
      </trkpt>
      <trkpt lat="47.04668" lon="5.66765">
        <ele>243.831543</ele>
        <time>2011-04-07T13:16:56Z</time>
      </trkpt>
      <trkpt lat="47.0469" lon="5.66758">
        <ele>244.792847</ele>
        <time>2011-04-07T13:17:15Z</time>
      </trkpt>
      <trkpt lat="47.04712" lon="5.66751">
        <ele>245.273438</ele>
        <time>2011-04-07T13:17:32Z</time>
      </trkpt>
      <trkpt lat="47.04733" lon="5.66743">
        <ele>245.75415</ele>
        <time>2011-04-07T13:17:46Z</time>
      </trkpt>
      <trkpt lat="47.04751" lon="5.66738">
        <ele>246.234863</ele>
        <time>2011-04-07T13:18:01Z</time>
      </trkpt>
      <trkpt lat="47.04782" lon="5.6673">
        <ele>246.234863</ele>
        <time>2011-04-07T13:18:25Z</time>
      </trkpt>
      <trkpt lat="47.04811" lon="5.66721">
        <ele>246.715454</ele>
        <time>2011-04-07T13:18:47Z</time>
      </trkpt>
      <trkpt lat="47.04831" lon="5.66715">
        <ele>247.196045</ele>
        <time>2011-04-07T13:19:03Z</time>
      </trkpt>
      <trkpt lat="47.04859" lon="5.66706">
        <ele>247.196045</ele>
        <time>2011-04-07T13:19:24Z</time>
      </trkpt>
      <trkpt lat="47.0488" lon="5.66698">
        <ele>246.715454</ele>
        <time>2011-04-07T13:19:44Z</time>
      </trkpt>
      <trkpt lat="47.04896" lon="5.66689">
        <ele>245.75415</ele>
        <time>2011-04-07T13:20:03Z</time>
      </trkpt>
      <trkpt lat="47.04917" lon="5.66683">
        <ele>244.792847</ele>
        <time>2011-04-07T13:20:21Z</time>
      </trkpt>
      <trkpt lat="47.04937" lon="5.66678">
        <ele>245.273438</ele>
        <time>2011-04-07T13:20:37Z</time>
      </trkpt>
      <trkpt lat="47.04961" lon="5.66667">
        <ele>245.273438</ele>
        <time>2011-04-07T13:20:54Z</time>
      </trkpt>
      <trkpt lat="47.04983" lon="5.66664">
        <ele>246.234863</ele>
        <time>2011-04-07T13:21:15Z</time>
      </trkpt>
      <trkpt lat="47.05003" lon="5.6665">
        <ele>246.715454</ele>
        <time>2011-04-07T13:21:36Z</time>
      </trkpt>
      <trkpt lat="47.05025" lon="5.66641">
        <ele>247.676758</ele>
        <time>2011-04-07T13:21:59Z</time>
      </trkpt>
      <trkpt lat="47.05061" lon="5.66634">
        <ele>248.157593</ele>
        <time>2011-04-07T13:22:26Z</time>
      </trkpt>
      <trkpt lat="47.05089" lon="5.66626">
        <ele>248.638184</ele>
        <time>2011-04-07T13:22:42Z</time>
      </trkpt>
      <trkpt lat="47.05117" lon="5.66621">
        <ele>249.118774</ele>
        <time>2011-04-07T13:23:01Z</time>
      </trkpt>
      <trkpt lat="47.05133" lon="5.6661">
        <ele>249.118774</ele>
        <time>2011-04-07T13:23:22Z</time>
      </trkpt>
      <trkpt lat="47.05148" lon="5.66599">
        <ele>249.118774</ele>
        <time>2011-04-07T13:23:38Z</time>
      </trkpt>
      <trkpt lat="47.05168" lon="5.66591">
        <ele>248.157593</ele>
        <time>2011-04-07T13:23:57Z</time>
      </trkpt>
      <trkpt lat="47.05176" lon="5.66583">
        <ele>246.715454</ele>
        <time>2011-04-07T13:24:21Z</time>
      </trkpt>
      <trkpt lat="47.05195" lon="5.66576">
        <ele>245.75415</ele>
        <time>2011-04-07T13:25:09Z</time>
      </trkpt>
      <trkpt lat="47.05215" lon="5.66567">
        <ele>245.273438</ele>
        <time>2011-04-07T13:25:25Z</time>
      </trkpt>
      <trkpt lat="47.05259" lon="5.66551">
        <ele>244.792847</ele>
        <time>2011-04-07T13:26:04Z</time>
      </trkpt>
      <trkpt lat="47.05299" lon="5.6654">
        <ele>243.831543</ele>
        <time>2011-04-07T13:26:20Z</time>
      </trkpt>
      <trkpt lat="47.05342" lon="5.66533">
        <ele>243.831543</ele>
        <time>2011-04-07T13:26:37Z</time>
      </trkpt>
      <trkpt lat="47.05355" lon="5.66527">
        <ele>243.35083</ele>
        <time>2011-04-07T13:26:51Z</time>
      </trkpt>
      <trkpt lat="47.0537" lon="5.66523">
        <ele>243.831543</ele>
        <time>2011-04-07T13:27:05Z</time>
      </trkpt>
      <trkpt lat="47.05387" lon="5.66518">
        <ele>243.831543</ele>
        <time>2011-04-07T13:27:20Z</time>
      </trkpt>
      <trkpt lat="47.05399" lon="5.66513">
        <ele>244.312256</ele>
        <time>2011-04-07T13:27:36Z</time>
      </trkpt>
      <trkpt lat="47.05438" lon="5.66509">
        <ele>245.273438</ele>
        <time>2011-04-07T13:28:43Z</time>
      </trkpt>
      <trkpt lat="47.05446" lon="5.6651">
        <ele>245.75415</ele>
        <time>2011-04-07T13:29:39Z</time>
      </trkpt>
      <trkpt lat="47.05453" lon="5.66506">
        <ele>246.715454</ele>
        <time>2011-04-07T13:30:20Z</time>
      </trkpt>
      <trkpt lat="47.05486" lon="5.66507">
        <ele>246.715454</ele>
        <time>2011-04-07T13:31:15Z</time>
      </trkpt>
      <trkpt lat="47.05492" lon="5.66509">
        <ele>247.196045</ele>
        <time>2011-04-07T13:32:38Z</time>
      </trkpt>
      <trkpt lat="47.05509" lon="5.66504">
        <ele>246.715454</ele>
        <time>2011-04-07T13:33:13Z</time>
      </trkpt>
      <trkpt lat="47.05523" lon="5.66505">
        <ele>247.196045</ele>
        <time>2011-04-07T13:33:24Z</time>
      </trkpt>
      <trkpt lat="47.05524" lon="5.66504">
        <ele>247.196045</ele>
        <time>2011-04-07T13:33:25Z</time>
      </trkpt>
      <trkpt lat="47.05531" lon="5.66502">
        <ele>246.715454</ele>
        <time>2011-04-07T13:33:35Z</time>
      </trkpt>
      <trkpt lat="47.05552" lon="5.66488">
        <ele>246.234863</ele>
        <time>2011-04-07T13:33:53Z</time>
      </trkpt>
      <trkpt lat="47.05585" lon="5.6648">
        <ele>246.234863</ele>
        <time>2011-04-07T13:34:15Z</time>
      </trkpt>
      <trkpt lat="47.0562" lon="5.66471">
        <ele>245.273438</ele>
        <time>2011-04-07T13:34:36Z</time>
      </trkpt>
      <trkpt lat="47.05639" lon="5.66461">
        <ele>244.312256</ele>
        <time>2011-04-07T13:34:57Z</time>
      </trkpt>
      <trkpt lat="47.0567" lon="5.66451">
        <ele>245.273438</ele>
        <time>2011-04-07T13:35:21Z</time>
      </trkpt>
      <trkpt lat="47.05693" lon="5.66446">
        <ele>246.234863</ele>
        <time>2011-04-07T13:35:42Z</time>
      </trkpt>
      <trkpt lat="47.05715" lon="5.66442">
        <ele>246.715454</ele>
        <time>2011-04-07T13:35:59Z</time>
      </trkpt>
      <trkpt lat="47.05744" lon="5.66432">
        <ele>247.196045</ele>
        <time>2011-04-07T13:36:21Z</time>
      </trkpt>
      <trkpt lat="47.05767" lon="5.66422">
        <ele>247.676758</ele>
        <time>2011-04-07T13:36:40Z</time>
      </trkpt>
      <trkpt lat="47.05797" lon="5.66411">
        <ele>247.196045</ele>
        <time>2011-04-07T13:37:02Z</time>
      </trkpt>
      <trkpt lat="47.058" lon="5.66408">
        <ele>246.715454</ele>
        <time>2011-04-07T13:37:06Z</time>
      </trkpt>
      <trkpt lat="47.05828" lon="5.66405">
        <ele>245.273438</ele>
        <time>2011-04-07T13:37:29Z</time>
      </trkpt>
      <trkpt lat="47.05851" lon="5.66401">
        <ele>244.312256</ele>
        <time>2011-04-07T13:37:45Z</time>
      </trkpt>
      <trkpt lat="47.0588" lon="5.66391">
        <ele>242.389648</ele>
        <time>2011-04-07T13:38:05Z</time>
      </trkpt>
      <trkpt lat="47.05905" lon="5.66382">
        <ele>240.947632</ele>
        <time>2011-04-07T13:38:22Z</time>
      </trkpt>
      <trkpt lat="47.05917" lon="5.66373">
        <ele>241.428223</ele>
        <time>2011-04-07T13:38:35Z</time>
      </trkpt>
      <trkpt lat="47.05936" lon="5.66369">
        <ele>242.389648</ele>
        <time>2011-04-07T13:38:52Z</time>
      </trkpt>
      <trkpt lat="47.05961" lon="5.66365">
        <ele>243.35083</ele>
        <time>2011-04-07T13:39:10Z</time>
      </trkpt>
      <trkpt lat="47.05963" lon="5.66363">
        <ele>243.35083</ele>
        <time>2011-04-07T13:39:12Z</time>
      </trkpt>
      <trkpt lat="47.05967" lon="5.66361">
        <ele>243.35083</ele>
        <time>2011-04-07T13:39:16Z</time>
      </trkpt>
      <trkpt lat="47.05974" lon="5.66357">
        <ele>243.831543</ele>
        <time>2011-04-07T13:39:28Z</time>
      </trkpt>
      <trkpt lat="47.05988" lon="5.66353">
        <ele>244.792847</ele>
        <time>2011-04-07T13:39:43Z</time>
      </trkpt>
      <trkpt lat="47.05997" lon="5.66348">
        <ele>244.792847</ele>
        <time>2011-04-07T13:39:51Z</time>
      </trkpt>
      <trkpt lat="47.06001" lon="5.66346">
        <ele>244.792847</ele>
        <time>2011-04-07T13:39:56Z</time>
      </trkpt>
      <trkpt lat="47.06008" lon="5.66347">
        <ele>244.792847</ele>
        <time>2011-04-07T13:40:03Z</time>
      </trkpt>
      <trkpt lat="47.06022" lon="5.66348">
        <ele>244.792847</ele>
        <time>2011-04-07T13:40:10Z</time>
      </trkpt>
      <trkpt lat="47.06036" lon="5.66342">
        <ele>244.792847</ele>
        <time>2011-04-07T13:40:23Z</time>
      </trkpt>
      <trkpt lat="47.06054" lon="5.66336">
        <ele>244.312256</ele>
        <time>2011-04-07T13:40:38Z</time>
      </trkpt>
      <trkpt lat="47.0608" lon="5.6633">
        <ele>244.312256</ele>
        <time>2011-04-07T13:40:56Z</time>
      </trkpt>
      <trkpt lat="47.06104" lon="5.66324">
        <ele>244.792847</ele>
        <time>2011-04-07T13:41:13Z</time>
      </trkpt>
      <trkpt lat="47.06116" lon="5.66319">
        <ele>245.273438</ele>
        <time>2011-04-07T13:41:24Z</time>
      </trkpt>
      <trkpt lat="47.06133" lon="5.66313">
        <ele>246.234863</ele>
        <time>2011-04-07T13:41:40Z</time>
      </trkpt>
      <trkpt lat="47.06157" lon="5.66305">
        <ele>246.715454</ele>
        <time>2011-04-07T13:41:56Z</time>
      </trkpt>
      <trkpt lat="47.06165" lon="5.66301">
        <ele>247.196045</ele>
        <time>2011-04-07T13:42:07Z</time>
      </trkpt>
      <trkpt lat="47.06167" lon="5.663">
        <ele>247.676758</ele>
        <time>2011-04-07T13:42:08Z</time>
      </trkpt>
      <trkpt lat="47.06182" lon="5.66296">
        <ele>247.676758</ele>
        <time>2011-04-07T13:42:20Z</time>
      </trkpt>
      <trkpt lat="47.06201" lon="5.66293">
        <ele>248.638184</ele>
        <time>2011-04-07T13:42:35Z</time>
      </trkpt>
      <trkpt lat="47.06219" lon="5.66288">
        <ele>249.118774</ele>
        <time>2011-04-07T13:42:48Z</time>
      </trkpt>
      <trkpt lat="47.06229" lon="5.6628">
        <ele>249.118774</ele>
        <time>2011-04-07T13:43:01Z</time>
      </trkpt>
      <trkpt lat="47.06259" lon="5.66273">
        <ele>249.599487</ele>
        <time>2011-04-07T13:43:20Z</time>
      </trkpt>
      <trkpt lat="47.0626" lon="5.66272">
        <ele>250.0802</ele>
        <time>2011-04-07T13:43:21Z</time>
      </trkpt>
      <trkpt lat="47.06281" lon="5.66268">
        <ele>249.599487</ele>
        <time>2011-04-07T13:43:36Z</time>
      </trkpt>
      <trkpt lat="47.06297" lon="5.66264">
        <ele>249.599487</ele>
        <time>2011-04-07T13:43:48Z</time>
      </trkpt>
      <trkpt lat="47.06309" lon="5.66262">
        <ele>250.0802</ele>
        <time>2011-04-07T13:43:57Z</time>
      </trkpt>
      <trkpt lat="47.06317" lon="5.66259">
        <ele>250.0802</ele>
        <time>2011-04-07T13:44:02Z</time>
      </trkpt>
      <trkpt lat="47.06325" lon="5.66255">
        <ele>250.0802</ele>
        <time>2011-04-07T13:44:10Z</time>
      </trkpt>
      <trkpt lat="47.06341" lon="5.66251">
        <ele>250.0802</ele>
        <time>2011-04-07T13:44:22Z</time>
      </trkpt>
      <trkpt lat="47.0635" lon="5.66247">
        <ele>249.599487</ele>
        <time>2011-04-07T13:44:29Z</time>
      </trkpt>
      <trkpt lat="47.0637" lon="5.66241">
        <ele>249.599487</ele>
        <time>2011-04-07T13:44:42Z</time>
      </trkpt>
      <trkpt lat="47.06383" lon="5.66236">
        <ele>249.599487</ele>
        <time>2011-04-07T13:44:54Z</time>
      </trkpt>
      <trkpt lat="47.064" lon="5.66229">
        <ele>249.599487</ele>
        <time>2011-04-07T13:45:10Z</time>
      </trkpt>
      <trkpt lat="47.06427" lon="5.66219">
        <ele>248.638184</ele>
        <time>2011-04-07T13:45:33Z</time>
      </trkpt>
      <trkpt lat="47.06443" lon="5.66216">
        <ele>248.157593</ele>
        <time>2011-04-07T13:45:48Z</time>
      </trkpt>
      <trkpt lat="47.06478" lon="5.66205">
        <ele>247.676758</ele>
        <time>2011-04-07T13:46:06Z</time>
      </trkpt>
      <trkpt lat="47.06502" lon="5.66197">
        <ele>247.676758</ele>
        <time>2011-04-07T13:46:27Z</time>
      </trkpt>
      <trkpt lat="47.06533" lon="5.6619">
        <ele>247.676758</ele>
        <time>2011-04-07T13:46:50Z</time>
      </trkpt>
      <trkpt lat="47.06551" lon="5.66183">
        <ele>247.196045</ele>
        <time>2011-04-07T13:47:08Z</time>
      </trkpt>
      <trkpt lat="47.06579" lon="5.66177">
        <ele>247.196045</ele>
        <time>2011-04-07T13:47:25Z</time>
      </trkpt>
      <trkpt lat="47.06597" lon="5.66169">
        <ele>246.715454</ele>
        <time>2011-04-07T13:47:39Z</time>
      </trkpt>
      <trkpt lat="47.0661" lon="5.66163">
        <ele>245.273438</ele>
        <time>2011-04-07T13:47:56Z</time>
      </trkpt>
      <trkpt lat="47.06617" lon="5.66162">
        <ele>244.312256</ele>
        <time>2011-04-07T13:48:02Z</time>
      </trkpt>
      <trkpt lat="47.06632" lon="5.66157">
        <ele>243.831543</ele>
        <time>2011-04-07T13:48:16Z</time>
      </trkpt>
      <trkpt lat="47.06663" lon="5.66149">
        <ele>241.428223</ele>
        <time>2011-04-07T13:48:36Z</time>
      </trkpt>
      <trkpt lat="47.06685" lon="5.66139">
        <ele>238.544312</ele>
        <time>2011-04-07T13:48:55Z</time>
      </trkpt>
      <trkpt lat="47.06711" lon="5.66126">
        <ele>235.660278</ele>
        <time>2011-04-07T13:49:15Z</time>
      </trkpt>
      <trkpt lat="47.06732" lon="5.66123">
        <ele>233.737671</ele>
        <time>2011-04-07T13:49:33Z</time>
      </trkpt>
      <trkpt lat="47.06758" lon="5.66111">
        <ele>232.776489</ele>
        <time>2011-04-07T13:49:53Z</time>
      </trkpt>
      <trkpt lat="47.06779" lon="5.66107">
        <ele>232.295776</ele>
        <time>2011-04-07T13:50:11Z</time>
      </trkpt>
      <trkpt lat="47.06796" lon="5.66104">
        <ele>231.814941</ele>
        <time>2011-04-07T13:50:26Z</time>
      </trkpt>
      <trkpt lat="47.06808" lon="5.66097">
        <ele>231.814941</ele>
        <time>2011-04-07T13:50:46Z</time>
      </trkpt>
      <trkpt lat="47.06818" lon="5.66103">
        <ele>231.814941</ele>
        <time>2011-04-07T13:51:01Z</time>
      </trkpt>
      <trkpt lat="47.06839" lon="5.66103">
        <ele>232.776489</ele>
        <time>2011-04-07T13:51:22Z</time>
      </trkpt>
      <trkpt lat="47.06854" lon="5.66095">
        <ele>232.776489</ele>
        <time>2011-04-07T13:51:39Z</time>
      </trkpt>
      <trkpt lat="47.06864" lon="5.66088">
        <ele>233.25708</ele>
        <time>2011-04-07T13:51:51Z</time>
      </trkpt>
      <trkpt lat="47.06869" lon="5.66087">
        <ele>233.25708</ele>
        <time>2011-04-07T13:51:54Z</time>
      </trkpt>
      <trkpt lat="47.06881" lon="5.66084">
        <ele>233.737671</ele>
        <time>2011-04-07T13:52:06Z</time>
      </trkpt>
      <trkpt lat="47.06895" lon="5.66082">
        <ele>234.218384</ele>
        <time>2011-04-07T13:52:18Z</time>
      </trkpt>
      <trkpt lat="47.06897" lon="5.66081">
        <ele>234.218384</ele>
        <time>2011-04-07T13:52:19Z</time>
      </trkpt>
      <trkpt lat="47.06899" lon="5.66082">
        <ele>234.218384</ele>
        <time>2011-04-07T13:52:21Z</time>
      </trkpt>
      <trkpt lat="47.06915" lon="5.66079">
        <ele>234.699097</ele>
        <time>2011-04-07T13:52:32Z</time>
      </trkpt>
      <trkpt lat="47.06917" lon="5.66076">
        <ele>234.699097</ele>
        <time>2011-04-07T13:52:35Z</time>
      </trkpt>
      <trkpt lat="47.06936" lon="5.66068">
        <ele>236.140991</ele>
        <time>2011-04-07T13:52:51Z</time>
      </trkpt>
      <trkpt lat="47.06956" lon="5.66062">
        <ele>237.582886</ele>
        <time>2011-04-07T13:53:07Z</time>
      </trkpt>
      <trkpt lat="47.06959" lon="5.6606">
        <ele>238.063599</ele>
        <time>2011-04-07T13:53:09Z</time>
      </trkpt>
      <trkpt lat="47.06973" lon="5.66052">
        <ele>239.024902</ele>
        <time>2011-04-07T13:53:24Z</time>
      </trkpt>
      <trkpt lat="47.06983" lon="5.66044">
        <ele>239.505493</ele>
        <time>2011-04-07T13:53:35Z</time>
      </trkpt>
      <trkpt lat="47.06999" lon="5.6604">
        <ele>240.467041</ele>
        <time>2011-04-07T13:53:48Z</time>
      </trkpt>
      <trkpt lat="47.0701" lon="5.66036">
        <ele>240.947632</ele>
        <time>2011-04-07T13:53:58Z</time>
      </trkpt>
      <trkpt lat="47.07029" lon="5.66034">
        <ele>240.947632</ele>
        <time>2011-04-07T13:54:12Z</time>
      </trkpt>
      <trkpt lat="47.07047" lon="5.66029">
        <ele>240.947632</ele>
        <time>2011-04-07T13:54:26Z</time>
      </trkpt>
      <trkpt lat="47.07065" lon="5.66024">
        <ele>240.467041</ele>
        <time>2011-04-07T13:54:41Z</time>
      </trkpt>
      <trkpt lat="47.07065" lon="5.66023">
        <ele>240.467041</ele>
        <time>2011-04-07T13:54:43Z</time>
      </trkpt>
      <trkpt lat="47.0708" lon="5.66018">
        <ele>240.947632</ele>
        <time>2011-04-07T13:54:54Z</time>
      </trkpt>
      <trkpt lat="47.07082" lon="5.66015">
        <ele>240.467041</ele>
        <time>2011-04-07T13:54:58Z</time>
      </trkpt>
      <trkpt lat="47.07099" lon="5.66009">
        <ele>240.467041</ele>
        <time>2011-04-07T13:55:11Z</time>
      </trkpt>
      <trkpt lat="47.07116" lon="5.66006">
        <ele>240.467041</ele>
        <time>2011-04-07T13:55:25Z</time>
      </trkpt>
      <trkpt lat="47.07116" lon="5.66001">
        <ele>240.947632</ele>
        <time>2011-04-07T13:55:42Z</time>
      </trkpt>
      <trkpt lat="47.07119" lon="5.65996">
        <ele>241.428223</ele>
        <time>2011-04-07T13:56:55Z</time>
      </trkpt>
      <trkpt lat="47.0712" lon="5.65994">
        <ele>241.428223</ele>
        <time>2011-04-07T13:57:27Z</time>
      </trkpt>
      <trkpt lat="47.07117" lon="5.65993">
        <ele>241.428223</ele>
        <time>2011-04-07T13:57:43Z</time>
      </trkpt>
      <trkpt lat="47.07118" lon="5.65993">
        <ele>241.908936</ele>
        <time>2011-04-07T13:58:42Z</time>
      </trkpt>
      <trkpt lat="47.07121" lon="5.65994">
        <ele>244.792847</ele>
        <time>2011-04-07T14:10:19Z</time>
      </trkpt>
      <trkpt lat="47.07116" lon="5.65952">
        <ele>246.715454</ele>
        <time>2011-04-07T14:10:48Z</time>
      </trkpt>
      <trkpt lat="47.07108" lon="5.65917">
        <ele>248.638184</ele>
        <time>2011-04-07T14:11:12Z</time>
      </trkpt>
      <trkpt lat="47.07101" lon="5.65893">
        <ele>249.118774</ele>
        <time>2011-04-07T14:11:31Z</time>
      </trkpt>
      <trkpt lat="47.07099" lon="5.65861">
        <ele>249.599487</ele>
        <time>2011-04-07T14:11:50Z</time>
      </trkpt>
      <trkpt lat="47.07098" lon="5.65848">
        <ele>250.0802</ele>
        <time>2011-04-07T14:12:03Z</time>
      </trkpt>
      <trkpt lat="47.07091" lon="5.65836">
        <ele>250.0802</ele>
        <time>2011-04-07T14:12:13Z</time>
      </trkpt>
      <trkpt lat="47.07088" lon="5.65817">
        <ele>250.560791</ele>
        <time>2011-04-07T14:12:26Z</time>
      </trkpt>
      <trkpt lat="47.07082" lon="5.65798">
        <ele>250.560791</ele>
        <time>2011-04-07T14:12:41Z</time>
      </trkpt>
      <trkpt lat="47.0708" lon="5.65779">
        <ele>251.041382</ele>
        <time>2011-04-07T14:12:52Z</time>
      </trkpt>
      <trkpt lat="47.07074" lon="5.65757">
        <ele>251.522095</ele>
        <time>2011-04-07T14:13:10Z</time>
      </trkpt>
      <trkpt lat="47.07069" lon="5.65747">
        <ele>251.522095</ele>
        <time>2011-04-07T14:13:31Z</time>
      </trkpt>
      <trkpt lat="47.07067" lon="5.65725">
        <ele>251.041382</ele>
        <time>2011-04-07T14:13:45Z</time>
      </trkpt>
      <trkpt lat="47.07065" lon="5.65708">
        <ele>251.041382</ele>
        <time>2011-04-07T14:14:04Z</time>
      </trkpt>
      <trkpt lat="47.07058" lon="5.65688">
        <ele>251.041382</ele>
        <time>2011-04-07T14:14:21Z</time>
      </trkpt>
      <trkpt lat="47.07055" lon="5.65683">
        <ele>251.041382</ele>
        <time>2011-04-07T14:14:25Z</time>
      </trkpt>
      <trkpt lat="47.07049" lon="5.65663">
        <ele>250.560791</ele>
        <time>2011-04-07T14:14:40Z</time>
      </trkpt>
      <trkpt lat="47.07044" lon="5.65632">
        <ele>250.560791</ele>
        <time>2011-04-07T14:14:59Z</time>
      </trkpt>
      <trkpt lat="47.07038" lon="5.65603">
        <ele>250.0802</ele>
        <time>2011-04-07T14:15:17Z</time>
      </trkpt>
      <trkpt lat="47.07032" lon="5.65578">
        <ele>249.599487</ele>
        <time>2011-04-07T14:15:33Z</time>
      </trkpt>
      <trkpt lat="47.07031" lon="5.65567">
        <ele>249.599487</ele>
        <time>2011-04-07T14:15:41Z</time>
      </trkpt>
      <trkpt lat="47.07026" lon="5.65546">
        <ele>249.118774</ele>
        <time>2011-04-07T14:15:55Z</time>
      </trkpt>
      <trkpt lat="47.07015" lon="5.6551">
        <ele>247.676758</ele>
        <time>2011-04-07T14:16:18Z</time>
      </trkpt>
      <trkpt lat="47.07011" lon="5.65491">
        <ele>247.196045</ele>
        <time>2011-04-07T14:16:33Z</time>
      </trkpt>
      <trkpt lat="47.07011" lon="5.65456">
        <ele>245.75415</ele>
        <time>2011-04-07T14:16:57Z</time>
      </trkpt>
      <trkpt lat="47.07" lon="5.65421">
        <ele>242.389648</ele>
        <time>2011-04-07T14:17:19Z</time>
      </trkpt>
      <trkpt lat="47.06986" lon="5.65379">
        <ele>240.947632</ele>
        <time>2011-04-07T14:17:40Z</time>
      </trkpt>
      <trkpt lat="47.06979" lon="5.65357">
        <ele>241.428223</ele>
        <time>2011-04-07T14:17:59Z</time>
      </trkpt>
      <trkpt lat="47.06973" lon="5.65364">
        <ele>240.947632</ele>
        <time>2011-04-07T14:18:16Z</time>
      </trkpt>
      <trkpt lat="47.06969" lon="5.65364">
        <ele>241.428223</ele>
        <time>2011-04-07T14:18:20Z</time>
      </trkpt>
      <trkpt lat="47.06961" lon="5.65358">
        <ele>239.986206</ele>
        <time>2011-04-07T14:18:34Z</time>
      </trkpt>
      <trkpt lat="47.06954" lon="5.65358">
        <ele>239.024902</ele>
        <time>2011-04-07T14:18:45Z</time>
      </trkpt>
      <trkpt lat="47.06944" lon="5.65361">
        <ele>239.986206</ele>
        <time>2011-04-07T14:18:59Z</time>
      </trkpt>
      <trkpt lat="47.06919" lon="5.65366">
        <ele>239.024902</ele>
        <time>2011-04-07T14:19:22Z</time>
      </trkpt>
      <trkpt lat="47.06899" lon="5.65379">
        <ele>238.544312</ele>
        <time>2011-04-07T14:19:45Z</time>
      </trkpt>
      <trkpt lat="47.06889" lon="5.65398">
        <ele>237.582886</ele>
        <time>2011-04-07T14:20:04Z</time>
      </trkpt>
      <trkpt lat="47.06872" lon="5.65425">
        <ele>236.621704</ele>
        <time>2011-04-07T14:20:29Z</time>
      </trkpt>
      <trkpt lat="47.06864" lon="5.65433">
        <ele>237.102295</ele>
        <time>2011-04-07T14:20:48Z</time>
      </trkpt>
      <trkpt lat="47.06855" lon="5.65442">
        <ele>237.102295</ele>
        <time>2011-04-07T14:21:11Z</time>
      </trkpt>
      <trkpt lat="47.0685" lon="5.65432">
        <ele>234.218384</ele>
        <time>2011-04-07T14:22:26Z</time>
      </trkpt>
      <trkpt lat="47.06856" lon="5.65419">
        <ele>235.660278</ele>
        <time>2011-04-07T14:22:51Z</time>
      </trkpt>
      <trkpt lat="47.06853" lon="5.65405">
        <ele>236.140991</ele>
        <time>2011-04-07T14:23:09Z</time>
      </trkpt>
      <trkpt lat="47.0685" lon="5.65397">
        <ele>235.660278</ele>
        <time>2011-04-07T14:23:27Z</time>
      </trkpt>
      <trkpt lat="47.0684" lon="5.65388">
        <ele>236.140991</ele>
        <time>2011-04-07T14:23:33Z</time>
      </trkpt>
      <trkpt lat="47.06824" lon="5.6536">
        <ele>236.140991</ele>
        <time>2011-04-07T14:23:53Z</time>
      </trkpt>
      <trkpt lat="47.06816" lon="5.65342">
        <ele>235.660278</ele>
        <time>2011-04-07T14:24:11Z</time>
      </trkpt>
      <trkpt lat="47.06802" lon="5.65323">
        <ele>236.140991</ele>
        <time>2011-04-07T14:24:29Z</time>
      </trkpt>
      <trkpt lat="47.06799" lon="5.6532">
        <ele>235.179688</ele>
        <time>2011-04-07T14:26:32Z</time>
      </trkpt>
      <trkpt lat="47.06798" lon="5.65318">
        <ele>235.660278</ele>
        <time>2011-04-07T14:27:16Z</time>
      </trkpt>
      <trkpt lat="47.06784" lon="5.65299">
        <ele>235.660278</ele>
        <time>2011-04-07T14:33:55Z</time>
      </trkpt>
      <trkpt lat="47.06772" lon="5.65287">
        <ele>236.140991</ele>
        <time>2011-04-07T14:34:10Z</time>
      </trkpt>
      <trkpt lat="47.06768" lon="5.65259">
        <ele>237.102295</ele>
        <time>2011-04-07T14:34:29Z</time>
      </trkpt>
      <trkpt lat="47.06772" lon="5.65234">
        <ele>237.582886</ele>
        <time>2011-04-07T14:34:46Z</time>
      </trkpt>
      <trkpt lat="47.06786" lon="5.65212">
        <ele>238.063599</ele>
        <time>2011-04-07T14:35:00Z</time>
      </trkpt>
      <trkpt lat="47.06784" lon="5.65183">
        <ele>239.505493</ele>
        <time>2011-04-07T14:35:17Z</time>
      </trkpt>
      <trkpt lat="47.06776" lon="5.65163">
        <ele>239.986206</ele>
        <time>2011-04-07T14:35:33Z</time>
      </trkpt>
      <trkpt lat="47.06767" lon="5.65121">
        <ele>241.428223</ele>
        <time>2011-04-07T14:35:54Z</time>
      </trkpt>
      <trkpt lat="47.06758" lon="5.65094">
        <ele>241.908936</ele>
        <time>2011-04-07T14:36:12Z</time>
      </trkpt>
      <trkpt lat="47.06752" lon="5.6506">
        <ele>242.870239</ele>
        <time>2011-04-07T14:36:36Z</time>
      </trkpt>
      <trkpt lat="47.06749" lon="5.65037">
        <ele>243.35083</ele>
        <time>2011-04-07T14:36:52Z</time>
      </trkpt>
      <trkpt lat="47.06742" lon="5.65001">
        <ele>243.831543</ele>
        <time>2011-04-07T14:37:13Z</time>
      </trkpt>
      <trkpt lat="47.06731" lon="5.64963">
        <ele>244.792847</ele>
        <time>2011-04-07T14:37:33Z</time>
      </trkpt>
      <trkpt lat="47.06718" lon="5.64927">
        <ele>245.75415</ele>
        <time>2011-04-07T14:37:50Z</time>
      </trkpt>
      <trkpt lat="47.06714" lon="5.64912">
        <ele>245.75415</ele>
        <time>2011-04-07T14:37:58Z</time>
      </trkpt>
      <trkpt lat="47.06711" lon="5.64889">
        <ele>246.715454</ele>
        <time>2011-04-07T14:38:11Z</time>
      </trkpt>
      <trkpt lat="47.06708" lon="5.64865">
        <ele>246.715454</ele>
        <time>2011-04-07T14:38:26Z</time>
      </trkpt>
      <trkpt lat="47.06701" lon="5.64835">
        <ele>247.676758</ele>
        <time>2011-04-07T14:38:45Z</time>
      </trkpt>
      <trkpt lat="47.06699" lon="5.6481">
        <ele>248.157593</ele>
        <time>2011-04-07T14:39:00Z</time>
      </trkpt>
      <trkpt lat="47.06691" lon="5.64772">
        <ele>248.157593</ele>
        <time>2011-04-07T14:39:21Z</time>
      </trkpt>
      <trkpt lat="47.06677" lon="5.6474">
        <ele>249.118774</ele>
        <time>2011-04-07T14:39:40Z</time>
      </trkpt>
      <trkpt lat="47.06675" lon="5.64733">
        <ele>250.560791</ele>
        <time>2011-04-07T14:39:51Z</time>
      </trkpt>
      <trkpt lat="47.06661" lon="5.64729">
        <ele>249.118774</ele>
        <time>2011-04-07T14:40:13Z</time>
      </trkpt>
      <trkpt lat="47.06657" lon="5.64731">
        <ele>249.599487</ele>
        <time>2011-04-07T14:40:17Z</time>
      </trkpt>
      <trkpt lat="47.06647" lon="5.64735">
        <ele>249.599487</ele>
        <time>2011-04-07T14:40:25Z</time>
      </trkpt>
      <trkpt lat="47.06628" lon="5.6475">
        <ele>250.0802</ele>
        <time>2011-04-07T14:40:42Z</time>
      </trkpt>
      <trkpt lat="47.06626" lon="5.64752">
        <ele>250.560791</ele>
        <time>2011-04-07T14:40:44Z</time>
      </trkpt>
      <trkpt lat="47.06609" lon="5.64758">
        <ele>250.0802</ele>
        <time>2011-04-07T14:41:00Z</time>
      </trkpt>
      <trkpt lat="47.06582" lon="5.6477">
        <ele>249.599487</ele>
        <time>2011-04-07T14:41:22Z</time>
      </trkpt>
      <trkpt lat="47.06565" lon="5.64776">
        <ele>249.599487</ele>
        <time>2011-04-07T14:41:40Z</time>
      </trkpt>
      <trkpt lat="47.06562" lon="5.64778">
        <ele>249.599487</ele>
        <time>2011-04-07T14:41:43Z</time>
      </trkpt>
      <trkpt lat="47.06544" lon="5.64781">
        <ele>248.638184</ele>
        <time>2011-04-07T14:41:57Z</time>
      </trkpt>
      <trkpt lat="47.06541" lon="5.64779">
        <ele>249.118774</ele>
        <time>2011-04-07T14:41:58Z</time>
      </trkpt>
      <trkpt lat="47.0653" lon="5.6478">
        <ele>248.157593</ele>
        <time>2011-04-07T14:42:05Z</time>
      </trkpt>
      <trkpt lat="47.06515" lon="5.64784">
        <ele>247.676758</ele>
        <time>2011-04-07T14:42:16Z</time>
      </trkpt>
      <trkpt lat="47.0651" lon="5.64786">
        <ele>247.196045</ele>
        <time>2011-04-07T14:42:21Z</time>
      </trkpt>
      <trkpt lat="47.06486" lon="5.64805">
        <ele>246.715454</ele>
        <time>2011-04-07T14:42:40Z</time>
      </trkpt>
      <trkpt lat="47.06478" lon="5.64811">
        <ele>246.234863</ele>
        <time>2011-04-07T14:42:47Z</time>
      </trkpt>
      <trkpt lat="47.06453" lon="5.64821">
        <ele>245.75415</ele>
        <time>2011-04-07T14:43:07Z</time>
      </trkpt>
      <trkpt lat="47.06433" lon="5.64825">
        <ele>244.792847</ele>
        <time>2011-04-07T14:43:21Z</time>
      </trkpt>
      <trkpt lat="47.06427" lon="5.64826">
        <ele>244.792847</ele>
        <time>2011-04-07T14:43:25Z</time>
      </trkpt>
      <trkpt lat="47.06394" lon="5.64828">
        <ele>243.831543</ele>
        <time>2011-04-07T14:43:48Z</time>
      </trkpt>
      <trkpt lat="47.06374" lon="5.64832">
        <ele>243.35083</ele>
        <time>2011-04-07T14:44:04Z</time>
      </trkpt>
      <trkpt lat="47.06352" lon="5.64841">
        <ele>242.389648</ele>
        <time>2011-04-07T14:44:22Z</time>
      </trkpt>
      <trkpt lat="47.06332" lon="5.64837">
        <ele>241.428223</ele>
        <time>2011-04-07T14:44:40Z</time>
      </trkpt>
      <trkpt lat="47.06317" lon="5.64833">
        <ele>241.428223</ele>
        <time>2011-04-07T14:44:49Z</time>
      </trkpt>
      <trkpt lat="47.06287" lon="5.64838">
        <ele>240.467041</ele>
        <time>2011-04-07T14:45:08Z</time>
      </trkpt>
      <trkpt lat="47.06264" lon="5.64845">
        <ele>240.467041</ele>
        <time>2011-04-07T14:45:24Z</time>
      </trkpt>
      <trkpt lat="47.06257" lon="5.64848">
        <ele>240.467041</ele>
        <time>2011-04-07T14:45:32Z</time>
      </trkpt>
      <trkpt lat="47.06255" lon="5.64849">
        <ele>240.467041</ele>
        <time>2011-04-07T14:45:36Z</time>
      </trkpt>
      <trkpt lat="47.06242" lon="5.64855">
        <ele>239.505493</ele>
        <time>2011-04-07T14:45:49Z</time>
      </trkpt>
      <trkpt lat="47.06234" lon="5.64861">
        <ele>239.024902</ele>
        <time>2011-04-07T14:45:57Z</time>
      </trkpt>
      <trkpt lat="47.06217" lon="5.64869">
        <ele>238.063599</ele>
        <time>2011-04-07T14:46:14Z</time>
      </trkpt>
      <trkpt lat="47.062" lon="5.64874">
        <ele>236.621704</ele>
        <time>2011-04-07T14:46:31Z</time>
      </trkpt>
      <trkpt lat="47.06195" lon="5.64876">
        <ele>236.140991</ele>
        <time>2011-04-07T14:46:38Z</time>
      </trkpt>
      <trkpt lat="47.0619" lon="5.64875">
        <ele>235.660278</ele>
        <time>2011-04-07T14:46:43Z</time>
      </trkpt>
      <trkpt lat="47.06177" lon="5.6488">
        <ele>234.699097</ele>
        <time>2011-04-07T14:46:55Z</time>
      </trkpt>
      <trkpt lat="47.06163" lon="5.6488">
        <ele>233.25708</ele>
        <time>2011-04-07T14:47:11Z</time>
      </trkpt>
      <trkpt lat="47.06148" lon="5.64881">
        <ele>231.814941</ele>
        <time>2011-04-07T14:47:25Z</time>
      </trkpt>
      <trkpt lat="47.06148" lon="5.64882">
        <ele>231.814941</ele>
        <time>2011-04-07T14:47:26Z</time>
      </trkpt>
      <trkpt lat="47.06131" lon="5.64893">
        <ele>230.373047</ele>
        <time>2011-04-07T14:47:45Z</time>
      </trkpt>
      <trkpt lat="47.06113" lon="5.64894">
        <ele>228.931152</ele>
        <time>2011-04-07T14:48:03Z</time>
      </trkpt>
      <trkpt lat="47.06099" lon="5.64902">
        <ele>228.450439</ele>
        <time>2011-04-07T14:48:17Z</time>
      </trkpt>
      <trkpt lat="47.06084" lon="5.64909">
        <ele>228.450439</ele>
        <time>2011-04-07T14:48:33Z</time>
      </trkpt>
      <trkpt lat="47.06064" lon="5.64916">
        <ele>228.931152</ele>
        <time>2011-04-07T14:48:52Z</time>
      </trkpt>
      <trkpt lat="47.0606" lon="5.64917">
        <ele>228.931152</ele>
        <time>2011-04-07T14:48:57Z</time>
      </trkpt>
      <trkpt lat="47.0605" lon="5.64904">
        <ele>228.450439</ele>
        <time>2011-04-07T14:49:13Z</time>
      </trkpt>
      <trkpt lat="47.06048" lon="5.64899">
        <ele>228.450439</ele>
        <time>2011-04-07T14:49:17Z</time>
      </trkpt>
      <trkpt lat="47.06043" lon="5.6488">
        <ele>228.450439</ele>
        <time>2011-04-07T14:49:30Z</time>
      </trkpt>
      <trkpt lat="47.06042" lon="5.64877">
        <ele>228.450439</ele>
        <time>2011-04-07T14:49:32Z</time>
      </trkpt>
      <trkpt lat="47.06032" lon="5.64849">
        <ele>227.489136</ele>
        <time>2011-04-07T14:49:46Z</time>
      </trkpt>
      <trkpt lat="47.06017" lon="5.64833">
        <ele>226.047119</ele>
        <time>2011-04-07T14:50:03Z</time>
      </trkpt>
      <trkpt lat="47.06013" lon="5.64828">
        <ele>225.566528</ele>
        <time>2011-04-07T14:50:15Z</time>
      </trkpt>
      <trkpt lat="47.06001" lon="5.64807">
        <ele>224.605225</ele>
        <time>2011-04-07T14:50:35Z</time>
      </trkpt>
      <trkpt lat="47.05995" lon="5.64791">
        <ele>224.124512</ele>
        <time>2011-04-07T14:50:49Z</time>
      </trkpt>
      <trkpt lat="47.05978" lon="5.64779">
        <ele>223.643799</ele>
        <time>2011-04-07T14:51:07Z</time>
      </trkpt>
      <trkpt lat="47.05965" lon="5.64762">
        <ele>222.201782</ele>
        <time>2011-04-07T14:51:21Z</time>
      </trkpt>
      <trkpt lat="47.05936" lon="5.64738">
        <ele>220.279175</ele>
        <time>2011-04-07T14:51:45Z</time>
      </trkpt>
      <trkpt lat="47.05916" lon="5.6472">
        <ele>219.317993</ele>
        <time>2011-04-07T14:52:02Z</time>
      </trkpt>
      <trkpt lat="47.05896" lon="5.64703">
        <ele>218.356567</ele>
        <time>2011-04-07T14:52:29Z</time>
      </trkpt>
      <trkpt lat="47.0589" lon="5.64697">
        <ele>217.875977</ele>
        <time>2011-04-07T14:52:35Z</time>
      </trkpt>
      <trkpt lat="47.05879" lon="5.64677">
        <ele>217.395386</ele>
        <time>2011-04-07T14:52:50Z</time>
      </trkpt>
      <trkpt lat="47.05868" lon="5.64653">
        <ele>216.914673</ele>
        <time>2011-04-07T14:53:14Z</time>
      </trkpt>
      <trkpt lat="47.0586" lon="5.64642">
        <ele>216.43396</ele>
        <time>2011-04-07T14:53:29Z</time>
      </trkpt>
      <trkpt lat="47.05849" lon="5.64639">
        <ele>215.472656</ele>
        <time>2011-04-07T14:53:46Z</time>
      </trkpt>
      <trkpt lat="47.05844" lon="5.64626">
        <ele>214.51123</ele>
        <time>2011-04-07T14:54:07Z</time>
      </trkpt>
      <trkpt lat="47.05834" lon="5.64619">
        <ele>213.069336</ele>
        <time>2011-04-07T14:54:27Z</time>
      </trkpt>
      <trkpt lat="47.0583" lon="5.64592">
        <ele>210.666016</ele>
        <time>2011-04-07T14:54:50Z</time>
      </trkpt>
      <trkpt lat="47.05759" lon="5.64548">
        <ele>208.743408</ele>
        <time>2011-04-07T14:55:13Z</time>
      </trkpt>
      <trkpt lat="47.05711" lon="5.64522">
        <ele>207.301392</ele>
        <time>2011-04-07T14:55:35Z</time>
      </trkpt>
      <trkpt lat="47.05638" lon="5.64491">
        <ele>206.340088</ele>
        <time>2011-04-07T14:56:11Z</time>
      </trkpt>
      <trkpt lat="47.05633" lon="5.64489">
        <ele>207.301392</ele>
        <time>2011-04-07T14:56:15Z</time>
      </trkpt>
      <trkpt lat="47.05622" lon="5.64474">
        <ele>207.782104</ele>
        <time>2011-04-07T14:56:21Z</time>
      </trkpt>
      <trkpt lat="47.05612" lon="5.64453">
        <ele>207.782104</ele>
        <time>2011-04-07T14:56:43Z</time>
      </trkpt>
      <trkpt lat="47.05599" lon="5.64428">
        <ele>207.782104</ele>
        <time>2011-04-07T14:57:08Z</time>
      </trkpt>
      <trkpt lat="47.05579" lon="5.64409">
        <ele>208.262817</ele>
        <time>2011-04-07T14:57:40Z</time>
      </trkpt>
      <trkpt lat="47.05564" lon="5.64377">
        <ele>208.743408</ele>
        <time>2011-04-07T14:58:04Z</time>
      </trkpt>
      <trkpt lat="47.05552" lon="5.64348">
        <ele>210.185425</ele>
        <time>2011-04-07T14:58:28Z</time>
      </trkpt>
      <trkpt lat="47.05561" lon="5.64331">
        <ele>211.627441</ele>
        <time>2011-04-07T14:58:47Z</time>
      </trkpt>
      <trkpt lat="47.05576" lon="5.64312">
        <ele>213.069336</ele>
        <time>2011-04-07T14:59:12Z</time>
      </trkpt>
      <trkpt lat="47.05583" lon="5.64294">
        <ele>214.03064</ele>
        <time>2011-04-07T14:59:31Z</time>
      </trkpt>
      <trkpt lat="47.05583" lon="5.64284">
        <ele>214.51123</ele>
        <time>2011-04-07T14:59:48Z</time>
      </trkpt>
      <trkpt lat="47.05581" lon="5.64291">
        <ele>214.51123</ele>
        <time>2011-04-07T15:00:27Z</time>
      </trkpt>
      <trkpt lat="47.05583" lon="5.64284">
        <ele>216.914673</ele>
        <time>2011-04-07T15:03:08Z</time>
      </trkpt>
      <trkpt lat="47.05571" lon="5.64258">
        <ele>219.317993</ele>
        <time>2011-04-07T15:06:01Z</time>
      </trkpt>
      <trkpt lat="47.05567" lon="5.64232">
        <ele>220.279175</ele>
        <time>2011-04-07T15:06:19Z</time>
      </trkpt>
      <trkpt lat="47.05556" lon="5.6421">
        <ele>221.721191</ele>
        <time>2011-04-07T15:06:37Z</time>
      </trkpt>
      <trkpt lat="47.05548" lon="5.64165">
        <ele>222.682495</ele>
        <time>2011-04-07T15:07:01Z</time>
      </trkpt>
      <trkpt lat="47.05534" lon="5.64161">
        <ele>222.682495</ele>
        <time>2011-04-07T15:07:16Z</time>
      </trkpt>
      <trkpt lat="47.05501" lon="5.64137">
        <ele>222.201782</ele>
        <time>2011-04-07T15:07:41Z</time>
      </trkpt>
      <trkpt lat="47.0548" lon="5.64114">
        <ele>222.201782</ele>
        <time>2011-04-07T15:08:02Z</time>
      </trkpt>
      <trkpt lat="47.05475" lon="5.64085">
        <ele>222.201782</ele>
        <time>2011-04-07T15:08:18Z</time>
      </trkpt>
      <trkpt lat="47.05476" lon="5.64083">
        <ele>222.201782</ele>
        <time>2011-04-07T15:08:19Z</time>
      </trkpt>
      <trkpt lat="47.05487" lon="5.64073">
        <ele>223.163208</ele>
        <time>2011-04-07T15:08:34Z</time>
      </trkpt>
      <trkpt lat="47.05489" lon="5.64067">
        <ele>223.163208</ele>
        <time>2011-04-07T15:08:55Z</time>
      </trkpt>
      <trkpt lat="47.05484" lon="5.64058">
        <ele>223.163208</ele>
        <time>2011-04-07T15:09:11Z</time>
      </trkpt>
      <trkpt lat="47.05483" lon="5.64063">
        <ele>223.643799</ele>
        <time>2011-04-07T15:09:31Z</time>
      </trkpt>
      <trkpt lat="47.05478" lon="5.64055">
        <ele>223.163208</ele>
        <time>2011-04-07T15:10:16Z</time>
      </trkpt>
      <trkpt lat="47.05477" lon="5.64052">
        <ele>223.643799</ele>
        <time>2011-04-07T15:10:45Z</time>
      </trkpt>
      <trkpt lat="47.05485" lon="5.64042">
        <ele>224.124512</ele>
        <time>2011-04-07T15:11:05Z</time>
      </trkpt>
      <trkpt lat="47.05504" lon="5.6403">
        <ele>224.605225</ele>
        <time>2011-04-07T15:11:24Z</time>
      </trkpt>
      <trkpt lat="47.05524" lon="5.64007">
        <ele>225.085938</ele>
        <time>2011-04-07T15:11:47Z</time>
      </trkpt>
      <trkpt lat="47.05524" lon="5.63993">
        <ele>225.085938</ele>
        <time>2011-04-07T15:12:03Z</time>
      </trkpt>
      <trkpt lat="47.05523" lon="5.63955">
        <ele>225.085938</ele>
        <time>2011-04-07T15:12:21Z</time>
      </trkpt>
      <trkpt lat="47.05538" lon="5.6394">
        <ele>225.566528</ele>
        <time>2011-04-07T15:12:36Z</time>
      </trkpt>
      <trkpt lat="47.05547" lon="5.63926">
        <ele>226.527832</ele>
        <time>2011-04-07T15:12:54Z</time>
      </trkpt>
      <trkpt lat="47.05549" lon="5.63929">
        <ele>227.008545</ele>
        <time>2011-04-07T15:15:12Z</time>
      </trkpt>
      <trkpt lat="47.05547" lon="5.63931">
        <ele>227.008545</ele>
        <time>2011-04-07T15:16:07Z</time>
      </trkpt>
      <trkpt lat="47.05535" lon="5.63948">
        <ele>226.047119</ele>
        <time>2011-04-07T15:16:21Z</time>
      </trkpt>
      <trkpt lat="47.05529" lon="5.63954">
        <ele>225.566528</ele>
        <time>2011-04-07T15:16:26Z</time>
      </trkpt>
      <trkpt lat="47.0553" lon="5.63975">
        <ele>225.566528</ele>
        <time>2011-04-07T15:16:42Z</time>
      </trkpt>
      <trkpt lat="47.05529" lon="5.64009">
        <ele>226.047119</ele>
        <time>2011-04-07T15:17:03Z</time>
      </trkpt>
      <trkpt lat="47.05515" lon="5.64028">
        <ele>225.566528</ele>
        <time>2011-04-07T15:17:17Z</time>
      </trkpt>
      <trkpt lat="47.05506" lon="5.64043">
        <ele>225.566528</ele>
        <time>2011-04-07T15:17:30Z</time>
      </trkpt>
      <trkpt lat="47.05485" lon="5.64056">
        <ele>225.085938</ele>
        <time>2011-04-07T15:17:45Z</time>
      </trkpt>
      <trkpt lat="47.05475" lon="5.64053">
        <ele>224.605225</ele>
        <time>2011-04-07T15:17:54Z</time>
      </trkpt>
      <trkpt lat="47.05472" lon="5.64051">
        <ele>224.605225</ele>
        <time>2011-04-07T15:17:57Z</time>
      </trkpt>
      <trkpt lat="47.05469" lon="5.64047">
        <ele>224.605225</ele>
        <time>2011-04-07T15:17:59Z</time>
      </trkpt>
      <trkpt lat="47.05455" lon="5.64027">
        <ele>223.643799</ele>
        <time>2011-04-07T15:18:13Z</time>
      </trkpt>
      <trkpt lat="47.05445" lon="5.64016">
        <ele>222.201782</ele>
        <time>2011-04-07T15:18:23Z</time>
      </trkpt>
      <trkpt lat="47.05427" lon="5.64011">
        <ele>220.279175</ele>
        <time>2011-04-07T15:18:39Z</time>
      </trkpt>
      <trkpt lat="47.05405" lon="5.63995">
        <ele>219.798584</ele>
        <time>2011-04-07T15:18:59Z</time>
      </trkpt>
      <trkpt lat="47.05389" lon="5.63983">
        <ele>219.317993</ele>
        <time>2011-04-07T15:19:16Z</time>
      </trkpt>
      <trkpt lat="47.05382" lon="5.63977">
        <ele>219.317993</ele>
        <time>2011-04-07T15:19:22Z</time>
      </trkpt>
      <trkpt lat="47.05369" lon="5.63957">
        <ele>220.279175</ele>
        <time>2011-04-07T15:19:37Z</time>
      </trkpt>
      <trkpt lat="47.05364" lon="5.63949">
        <ele>220.759888</ele>
        <time>2011-04-07T15:20:06Z</time>
      </trkpt>
      <trkpt lat="47.05355" lon="5.63947">
        <ele>220.759888</ele>
        <time>2011-04-07T15:20:30Z</time>
      </trkpt>
      <trkpt lat="47.05353" lon="5.63945">
        <ele>221.240601</ele>
        <time>2011-04-07T15:21:19Z</time>
      </trkpt>
      <trkpt lat="47.05347" lon="5.63935">
        <ele>221.240601</ele>
        <time>2011-04-07T15:21:38Z</time>
      </trkpt>
      <trkpt lat="47.0534" lon="5.63921">
        <ele>221.240601</ele>
        <time>2011-04-07T15:21:58Z</time>
      </trkpt>
      <trkpt lat="47.05329" lon="5.63902">
        <ele>221.240601</ele>
        <time>2011-04-07T15:22:15Z</time>
      </trkpt>
      <trkpt lat="47.05325" lon="5.63898">
        <ele>221.240601</ele>
        <time>2011-04-07T15:22:19Z</time>
      </trkpt>
      <trkpt lat="47.05308" lon="5.63887">
        <ele>221.721191</ele>
        <time>2011-04-07T15:22:35Z</time>
      </trkpt>
      <trkpt lat="47.05288" lon="5.63867">
        <ele>220.279175</ele>
        <time>2011-04-07T15:22:58Z</time>
      </trkpt>
      <trkpt lat="47.05282" lon="5.63864">
        <ele>219.798584</ele>
        <time>2011-04-07T15:23:03Z</time>
      </trkpt>
      <trkpt lat="47.05261" lon="5.63849">
        <ele>218.356567</ele>
        <time>2011-04-07T15:23:19Z</time>
      </trkpt>
      <trkpt lat="47.05243" lon="5.6384">
        <ele>216.914673</ele>
        <time>2011-04-07T15:23:34Z</time>
      </trkpt>
      <trkpt lat="47.05221" lon="5.63818">
        <ele>216.43396</ele>
        <time>2011-04-07T15:23:52Z</time>
      </trkpt>
      <trkpt lat="47.05207" lon="5.63793">
        <ele>216.43396</ele>
        <time>2011-04-07T15:24:11Z</time>
      </trkpt>
      <trkpt lat="47.05195" lon="5.63764">
        <ele>216.43396</ele>
        <time>2011-04-07T15:24:29Z</time>
      </trkpt>
      <trkpt lat="47.05185" lon="5.63735">
        <ele>216.43396</ele>
        <time>2011-04-07T15:24:47Z</time>
      </trkpt>
      <trkpt lat="47.05181" lon="5.63705">
        <ele>216.43396</ele>
        <time>2011-04-07T15:25:07Z</time>
      </trkpt>
      <trkpt lat="47.05173" lon="5.63675">
        <ele>216.914673</ele>
        <time>2011-04-07T15:25:23Z</time>
      </trkpt>
      <trkpt lat="47.05159" lon="5.63653">
        <ele>216.43396</ele>
        <time>2011-04-07T15:25:39Z</time>
      </trkpt>
      <trkpt lat="47.05139" lon="5.63635">
        <ele>216.914673</ele>
        <time>2011-04-07T15:25:57Z</time>
      </trkpt>
      <trkpt lat="47.05111" lon="5.63608">
        <ele>216.43396</ele>
        <time>2011-04-07T15:26:21Z</time>
      </trkpt>
      <trkpt lat="47.05091" lon="5.63595">
        <ele>215.953247</ele>
        <time>2011-04-07T15:26:38Z</time>
      </trkpt>
      <trkpt lat="47.0507" lon="5.6362">
        <ele>215.472656</ele>
        <time>2011-04-07T15:26:59Z</time>
      </trkpt>
      <trkpt lat="47.05044" lon="5.6365">
        <ele>214.991943</ele>
        <time>2011-04-07T15:27:26Z</time>
      </trkpt>
      <trkpt lat="47.05026" lon="5.63667">
        <ele>215.953247</ele>
        <time>2011-04-07T15:27:40Z</time>
      </trkpt>
      <trkpt lat="47.05008" lon="5.6368">
        <ele>215.472656</ele>
        <time>2011-04-07T15:27:56Z</time>
      </trkpt>
      <trkpt lat="47.05005" lon="5.63682">
        <ele>215.472656</ele>
        <time>2011-04-07T15:27:59Z</time>
      </trkpt>
      <trkpt lat="47.04974" lon="5.63713">
        <ele>214.991943</ele>
        <time>2011-04-07T15:28:26Z</time>
      </trkpt>
      <trkpt lat="47.04949" lon="5.63732">
        <ele>214.991943</ele>
        <time>2011-04-07T15:28:47Z</time>
      </trkpt>
      <trkpt lat="47.04929" lon="5.63754">
        <ele>215.953247</ele>
        <time>2011-04-07T15:29:07Z</time>
      </trkpt>
      <trkpt lat="47.04907" lon="5.63773">
        <ele>216.43396</ele>
        <time>2011-04-07T15:29:27Z</time>
      </trkpt>
      <trkpt lat="47.04881" lon="5.63794">
        <ele>217.395386</ele>
        <time>2011-04-07T15:29:50Z</time>
      </trkpt>
      <trkpt lat="47.04851" lon="5.63816">
        <ele>218.83728</ele>
        <time>2011-04-07T15:30:16Z</time>
      </trkpt>
      <trkpt lat="47.04827" lon="5.63827">
        <ele>220.279175</ele>
        <time>2011-04-07T15:30:37Z</time>
      </trkpt>
      <trkpt lat="47.04804" lon="5.63836">
        <ele>221.721191</ele>
        <time>2011-04-07T15:30:55Z</time>
      </trkpt>
      <trkpt lat="47.04787" lon="5.63844">
        <ele>222.201782</ele>
        <time>2011-04-07T15:31:09Z</time>
      </trkpt>
      <trkpt lat="47.04759" lon="5.63862">
        <ele>223.163208</ele>
        <time>2011-04-07T15:31:33Z</time>
      </trkpt>
      <trkpt lat="47.04734" lon="5.63874">
        <ele>224.605225</ele>
        <time>2011-04-07T15:31:53Z</time>
      </trkpt>
      <trkpt lat="47.04732" lon="5.63875">
        <ele>224.605225</ele>
        <time>2011-04-07T15:31:54Z</time>
      </trkpt>
      <trkpt lat="47.04714" lon="5.63876">
        <ele>225.566528</ele>
        <time>2011-04-07T15:32:07Z</time>
      </trkpt>
      <trkpt lat="47.04707" lon="5.63879">
        <ele>226.047119</ele>
        <time>2011-04-07T15:32:12Z</time>
      </trkpt>
      <trkpt lat="47.04684" lon="5.63881">
        <ele>227.489136</ele>
        <time>2011-04-07T15:32:31Z</time>
      </trkpt>
      <trkpt lat="47.04678" lon="5.63883">
        <ele>228.450439</ele>
        <time>2011-04-07T15:32:45Z</time>
      </trkpt>
      <trkpt lat="47.04678" lon="5.63881">
        <ele>228.450439</ele>
        <time>2011-04-07T15:32:49Z</time>
      </trkpt>
      <trkpt lat="47.04677" lon="5.63874">
        <ele>227.969727</ele>
        <time>2011-04-07T15:32:54Z</time>
      </trkpt>
      <trkpt lat="47.04674" lon="5.6387">
        <ele>227.969727</ele>
        <time>2011-04-07T15:32:57Z</time>
      </trkpt>
      <trkpt lat="47.04667" lon="5.63864">
        <ele>228.450439</ele>
        <time>2011-04-07T15:33:04Z</time>
      </trkpt>
      <trkpt lat="47.04664" lon="5.63863">
        <ele>228.450439</ele>
        <time>2011-04-07T15:33:08Z</time>
      </trkpt>
      <trkpt lat="47.0466" lon="5.63859">
        <ele>228.450439</ele>
        <time>2011-04-07T15:33:12Z</time>
      </trkpt>
      <trkpt lat="47.04642" lon="5.63834">
        <ele>229.411743</ele>
        <time>2011-04-07T15:33:31Z</time>
      </trkpt>
      <trkpt lat="47.04625" lon="5.63809">
        <ele>229.892334</ele>
        <time>2011-04-07T15:33:50Z</time>
      </trkpt>
      <trkpt lat="47.04612" lon="5.63791">
        <ele>229.411743</ele>
        <time>2011-04-07T15:34:06Z</time>
      </trkpt>
      <trkpt lat="47.04592" lon="5.63762">
        <ele>229.411743</ele>
        <time>2011-04-07T15:34:27Z</time>
      </trkpt>
      <trkpt lat="47.04573" lon="5.63732">
        <ele>227.969727</ele>
        <time>2011-04-07T15:34:50Z</time>
      </trkpt>
      <trkpt lat="47.04555" lon="5.63704">
        <ele>227.489136</ele>
        <time>2011-04-07T15:35:10Z</time>
      </trkpt>
      <trkpt lat="47.04542" lon="5.6368">
        <ele>227.489136</ele>
        <time>2011-04-07T15:35:25Z</time>
      </trkpt>
      <trkpt lat="47.0453" lon="5.63652">
        <ele>227.489136</ele>
        <time>2011-04-07T15:35:43Z</time>
      </trkpt>
      <trkpt lat="47.04521" lon="5.63635">
        <ele>227.969727</ele>
        <time>2011-04-07T15:35:55Z</time>
      </trkpt>
      <trkpt lat="47.04513" lon="5.63618">
        <ele>228.450439</ele>
        <time>2011-04-07T15:36:05Z</time>
      </trkpt>
      <trkpt lat="47.04498" lon="5.63589">
        <ele>228.931152</ele>
        <time>2011-04-07T15:36:26Z</time>
      </trkpt>
      <trkpt lat="47.04482" lon="5.63562">
        <ele>229.892334</ele>
        <time>2011-04-07T15:36:45Z</time>
      </trkpt>
      <trkpt lat="47.04464" lon="5.63538">
        <ele>229.892334</ele>
        <time>2011-04-07T15:37:04Z</time>
      </trkpt>
      <trkpt lat="47.0445" lon="5.63516">
        <ele>229.411743</ele>
        <time>2011-04-07T15:37:21Z</time>
      </trkpt>
      <trkpt lat="47.04435" lon="5.63481">
        <ele>228.931152</ele>
        <time>2011-04-07T15:37:40Z</time>
      </trkpt>
      <trkpt lat="47.04432" lon="5.63471">
        <ele>229.411743</ele>
        <time>2011-04-07T15:37:51Z</time>
      </trkpt>
      <trkpt lat="47.04419" lon="5.6346">
        <ele>229.892334</ele>
        <time>2011-04-07T15:38:05Z</time>
      </trkpt>
      <trkpt lat="47.04415" lon="5.63453">
        <ele>229.892334</ele>
        <time>2011-04-07T15:38:09Z</time>
      </trkpt>
      <trkpt lat="47.04413" lon="5.63451">
        <ele>229.892334</ele>
        <time>2011-04-07T15:38:11Z</time>
      </trkpt>
      <trkpt lat="47.04401" lon="5.63439">
        <ele>229.892334</ele>
        <time>2011-04-07T15:38:25Z</time>
      </trkpt>
      <trkpt lat="47.04386" lon="5.63429">
        <ele>230.373047</ele>
        <time>2011-04-07T15:38:41Z</time>
      </trkpt>
      <trkpt lat="47.0437" lon="5.63414">
        <ele>230.85376</ele>
        <time>2011-04-07T15:38:56Z</time>
      </trkpt>
      <trkpt lat="47.04367" lon="5.63412">
        <ele>230.85376</ele>
        <time>2011-04-07T15:38:58Z</time>
      </trkpt>
      <trkpt lat="47.0436" lon="5.63409">
        <ele>230.85376</ele>
        <time>2011-04-07T15:39:04Z</time>
      </trkpt>
      <trkpt lat="47.04333" lon="5.63405">
        <ele>231.334351</ele>
        <time>2011-04-07T15:39:23Z</time>
      </trkpt>
      <trkpt lat="47.04322" lon="5.63405">
        <ele>231.814941</ele>
        <time>2011-04-07T15:39:31Z</time>
      </trkpt>
      <trkpt lat="47.04313" lon="5.63408">
        <ele>231.334351</ele>
        <time>2011-04-07T15:39:39Z</time>
      </trkpt>
      <trkpt lat="47.04307" lon="5.63404">
        <ele>231.334351</ele>
        <time>2011-04-07T15:39:44Z</time>
      </trkpt>
      <trkpt lat="47.04299" lon="5.6339">
        <ele>231.334351</ele>
        <time>2011-04-07T15:39:57Z</time>
      </trkpt>
      <trkpt lat="47.0429" lon="5.63373">
        <ele>230.85376</ele>
        <time>2011-04-07T15:40:08Z</time>
      </trkpt>
      <trkpt lat="47.04277" lon="5.63345">
        <ele>230.373047</ele>
        <time>2011-04-07T15:40:23Z</time>
      </trkpt>
      <trkpt lat="47.04271" lon="5.63336">
        <ele>229.892334</ele>
        <time>2011-04-07T15:40:30Z</time>
      </trkpt>
      <trkpt lat="47.0426" lon="5.63323">
        <ele>229.411743</ele>
        <time>2011-04-07T15:40:43Z</time>
      </trkpt>
      <trkpt lat="47.04251" lon="5.6332">
        <ele>229.411743</ele>
        <time>2011-04-07T15:40:51Z</time>
      </trkpt>
      <trkpt lat="47.04249" lon="5.63321">
        <ele>229.411743</ele>
        <time>2011-04-07T15:40:54Z</time>
      </trkpt>
      <trkpt lat="47.04245" lon="5.6332">
        <ele>229.411743</ele>
        <time>2011-04-07T15:40:58Z</time>
      </trkpt>
      <trkpt lat="47.04232" lon="5.63305">
        <ele>229.411743</ele>
        <time>2011-04-07T15:41:09Z</time>
      </trkpt>
      <trkpt lat="47.04216" lon="5.63288">
        <ele>229.411743</ele>
        <time>2011-04-07T15:41:23Z</time>
      </trkpt>
      <trkpt lat="47.04215" lon="5.63289">
        <ele>229.892334</ele>
        <time>2011-04-07T15:41:56Z</time>
      </trkpt>
    </trkseg>
  </trk>
</gpx>